<?xml version="1.0" encoding="UTF-8" standalone="no" ?>
<gpx xmlns="http://www.topografix.com/GPX/1/1" xmlns:xsi="http://www.w3.org/2001/XMLSchema-instance" xsi:schemaLocation="http://www.topografix.com/GPX/1/1 http://www.topografix.com/GPX/1/1/gpx.xsd" version="1.1" creator="VisuGPX - https://www.visugpx.com">
  <metadata>
    <name>Randonnée château d'allégre</name>
  </metadata>
  <trk>
    <name><![CDATA[Randonnée du 18/05/2023 à 10:43]]></name>
    <trkseg>
      <trkpt lat="44.18505" lon="4.23208">
        <ele>185</ele>
        <time>2023-05-18T10:43:30+02:00</time>
      </trkpt>
      <trkpt lat="44.18507" lon="4.23189">
        <ele>185</ele>
        <time>2023-05-18T10:43:43+02:00</time>
      </trkpt>
      <trkpt lat="44.18512" lon="4.23169">
        <ele>185</ele>
        <time>2023-05-18T10:44:05+02:00</time>
      </trkpt>
      <trkpt lat="44.18518" lon="4.23151">
        <ele>185</ele>
        <time>2023-05-18T10:44:21+02:00</time>
      </trkpt>
      <trkpt lat="44.18524" lon="4.2313">
        <ele>185</ele>
        <time>2023-05-18T10:44:36+02:00</time>
      </trkpt>
      <trkpt lat="44.18531" lon="4.23112">
        <ele>185</ele>
        <time>2023-05-18T10:44:50+02:00</time>
      </trkpt>
      <trkpt lat="44.18546" lon="4.23114">
        <ele>185</ele>
        <time>2023-05-18T10:45:12+02:00</time>
      </trkpt>
      <trkpt lat="44.18561" lon="4.23121">
        <ele>185</ele>
        <time>2023-05-18T10:45:26+02:00</time>
      </trkpt>
      <trkpt lat="44.18575" lon="4.23129">
        <ele>185</ele>
        <time>2023-05-18T10:45:39+02:00</time>
      </trkpt>
      <trkpt lat="44.18589" lon="4.23137">
        <ele>185</ele>
        <time>2023-05-18T10:45:53+02:00</time>
      </trkpt>
      <trkpt lat="44.18604" lon="4.23147">
        <ele>184</ele>
        <time>2023-05-18T10:46:07+02:00</time>
      </trkpt>
      <trkpt lat="44.18618" lon="4.23157">
        <ele>184</ele>
        <time>2023-05-18T10:46:20+02:00</time>
      </trkpt>
      <trkpt lat="44.18631" lon="4.23165">
        <ele>184</ele>
        <time>2023-05-18T10:46:31+02:00</time>
      </trkpt>
      <trkpt lat="44.18645" lon="4.23174">
        <ele>184</ele>
        <time>2023-05-18T10:46:45+02:00</time>
      </trkpt>
      <trkpt lat="44.18658" lon="4.23186">
        <ele>184</ele>
        <time>2023-05-18T10:46:58+02:00</time>
      </trkpt>
      <trkpt lat="44.1867" lon="4.23199">
        <ele>184</ele>
        <time>2023-05-18T10:47:11+02:00</time>
      </trkpt>
      <trkpt lat="44.18682" lon="4.23208">
        <ele>184</ele>
        <time>2023-05-18T10:47:23+02:00</time>
      </trkpt>
      <trkpt lat="44.18695" lon="4.23219">
        <ele>184</ele>
        <time>2023-05-18T10:47:36+02:00</time>
      </trkpt>
      <trkpt lat="44.1871" lon="4.23226">
        <ele>184</ele>
        <time>2023-05-18T10:47:49+02:00</time>
      </trkpt>
      <trkpt lat="44.18725" lon="4.23232">
        <ele>184</ele>
        <time>2023-05-18T10:48:01+02:00</time>
      </trkpt>
      <trkpt lat="44.18738" lon="4.23242">
        <ele>184</ele>
        <time>2023-05-18T10:48:13+02:00</time>
      </trkpt>
      <trkpt lat="44.18749" lon="4.23255">
        <ele>184</ele>
        <time>2023-05-18T10:48:25+02:00</time>
      </trkpt>
      <trkpt lat="44.18762" lon="4.23266">
        <ele>184</ele>
        <time>2023-05-18T10:48:37+02:00</time>
      </trkpt>
      <trkpt lat="44.18775" lon="4.23278">
        <ele>183</ele>
        <time>2023-05-18T10:48:52+02:00</time>
      </trkpt>
      <trkpt lat="44.18786" lon="4.23291">
        <ele>183</ele>
        <time>2023-05-18T10:49:05+02:00</time>
      </trkpt>
      <trkpt lat="44.188" lon="4.23294">
        <ele>183</ele>
        <time>2023-05-18T10:49:21+02:00</time>
      </trkpt>
      <trkpt lat="44.18808" lon="4.23276">
        <ele>184</ele>
        <time>2023-05-18T10:49:30+02:00</time>
      </trkpt>
      <trkpt lat="44.18814" lon="4.23254">
        <ele>184</ele>
        <time>2023-05-18T10:49:42+02:00</time>
      </trkpt>
      <trkpt lat="44.18821" lon="4.23233">
        <ele>185</ele>
        <time>2023-05-18T10:49:57+02:00</time>
      </trkpt>
      <trkpt lat="44.1883" lon="4.23219">
        <ele>186</ele>
        <time>2023-05-18T10:50:15+02:00</time>
      </trkpt>
      <trkpt lat="44.18844" lon="4.23229">
        <ele>185</ele>
        <time>2023-05-18T10:50:30+02:00</time>
      </trkpt>
      <trkpt lat="44.18854" lon="4.23244">
        <ele>186</ele>
        <time>2023-05-18T10:50:45+02:00</time>
      </trkpt>
      <trkpt lat="44.18867" lon="4.23252">
        <ele>189</ele>
        <time>2023-05-18T10:51:01+02:00</time>
      </trkpt>
      <trkpt lat="44.18878" lon="4.23267">
        <ele>188</ele>
        <time>2023-05-18T10:51:32+02:00</time>
      </trkpt>
      <trkpt lat="44.18883" lon="4.23285">
        <ele>187</ele>
        <time>2023-05-18T10:51:49+02:00</time>
      </trkpt>
      <trkpt lat="44.18887" lon="4.23304">
        <ele>186</ele>
        <time>2023-05-18T10:52:16+02:00</time>
      </trkpt>
      <trkpt lat="44.18893" lon="4.23324">
        <ele>184</ele>
        <time>2023-05-18T10:52:29+02:00</time>
      </trkpt>
      <trkpt lat="44.189" lon="4.23345">
        <ele>184</ele>
        <time>2023-05-18T10:52:42+02:00</time>
      </trkpt>
      <trkpt lat="44.18909" lon="4.23362">
        <ele>183</ele>
        <time>2023-05-18T10:52:59+02:00</time>
      </trkpt>
      <trkpt lat="44.18921" lon="4.23375">
        <ele>183</ele>
        <time>2023-05-18T10:53:14+02:00</time>
      </trkpt>
      <trkpt lat="44.18929" lon="4.23394">
        <ele>183</ele>
        <time>2023-05-18T10:53:28+02:00</time>
      </trkpt>
      <trkpt lat="44.18936" lon="4.23412">
        <ele>183</ele>
        <time>2023-05-18T10:53:41+02:00</time>
      </trkpt>
      <trkpt lat="44.18939" lon="4.23433">
        <ele>182</ele>
        <time>2023-05-18T10:53:56+02:00</time>
      </trkpt>
      <trkpt lat="44.18948" lon="4.23449">
        <ele>182</ele>
        <time>2023-05-18T10:54:08+02:00</time>
      </trkpt>
      <trkpt lat="44.18955" lon="4.23466">
        <ele>182</ele>
        <time>2023-05-18T10:54:21+02:00</time>
      </trkpt>
      <trkpt lat="44.18964" lon="4.23481">
        <ele>182</ele>
        <time>2023-05-18T10:54:34+02:00</time>
      </trkpt>
      <trkpt lat="44.18973" lon="4.23501">
        <ele>182</ele>
        <time>2023-05-18T10:54:49+02:00</time>
      </trkpt>
      <trkpt lat="44.18981" lon="4.23516">
        <ele>182</ele>
        <time>2023-05-18T10:55:00+02:00</time>
      </trkpt>
      <trkpt lat="44.18992" lon="4.23531">
        <ele>182</ele>
        <time>2023-05-18T10:55:13+02:00</time>
      </trkpt>
      <trkpt lat="44.19001" lon="4.23546">
        <ele>181</ele>
        <time>2023-05-18T10:55:24+02:00</time>
      </trkpt>
      <trkpt lat="44.19013" lon="4.23556">
        <ele>181</ele>
        <time>2023-05-18T10:55:37+02:00</time>
      </trkpt>
      <trkpt lat="44.19026" lon="4.23563">
        <ele>182</ele>
        <time>2023-05-18T10:55:55+02:00</time>
      </trkpt>
      <trkpt lat="44.19036" lon="4.23578">
        <ele>181</ele>
        <time>2023-05-18T10:56:08+02:00</time>
      </trkpt>
      <trkpt lat="44.19045" lon="4.23595">
        <ele>181</ele>
        <time>2023-05-18T10:56:22+02:00</time>
      </trkpt>
      <trkpt lat="44.19054" lon="4.23613">
        <ele>181</ele>
        <time>2023-05-18T10:56:39+02:00</time>
      </trkpt>
      <trkpt lat="44.19067" lon="4.23606">
        <ele>181</ele>
        <time>2023-05-18T10:56:53+02:00</time>
      </trkpt>
      <trkpt lat="44.19077" lon="4.23591">
        <ele>181</ele>
        <time>2023-05-18T10:57:05+02:00</time>
      </trkpt>
      <trkpt lat="44.19087" lon="4.23575">
        <ele>181</ele>
        <time>2023-05-18T10:57:20+02:00</time>
      </trkpt>
      <trkpt lat="44.19096" lon="4.2356">
        <ele>182</ele>
        <time>2023-05-18T10:57:33+02:00</time>
      </trkpt>
      <trkpt lat="44.19105" lon="4.23544">
        <ele>182</ele>
        <time>2023-05-18T10:57:47+02:00</time>
      </trkpt>
      <trkpt lat="44.19114" lon="4.23528">
        <ele>183</ele>
        <time>2023-05-18T10:58:00+02:00</time>
      </trkpt>
      <trkpt lat="44.19125" lon="4.23511">
        <ele>183</ele>
        <time>2023-05-18T10:58:14+02:00</time>
      </trkpt>
      <trkpt lat="44.19135" lon="4.23496">
        <ele>184</ele>
        <time>2023-05-18T10:58:27+02:00</time>
      </trkpt>
      <trkpt lat="44.19144" lon="4.23478">
        <ele>185</ele>
        <time>2023-05-18T10:58:40+02:00</time>
      </trkpt>
      <trkpt lat="44.19155" lon="4.23462">
        <ele>186</ele>
        <time>2023-05-18T10:58:54+02:00</time>
      </trkpt>
      <trkpt lat="44.19165" lon="4.23445">
        <ele>188</ele>
        <time>2023-05-18T10:59:08+02:00</time>
      </trkpt>
      <trkpt lat="44.19172" lon="4.23426">
        <ele>189</ele>
        <time>2023-05-18T10:59:25+02:00</time>
      </trkpt>
      <trkpt lat="44.1918" lon="4.23406">
        <ele>190</ele>
        <time>2023-05-18T10:59:40+02:00</time>
      </trkpt>
      <trkpt lat="44.19187" lon="4.23389">
        <ele>192</ele>
        <time>2023-05-18T10:59:56+02:00</time>
      </trkpt>
      <trkpt lat="44.19197" lon="4.23376">
        <ele>194</ele>
        <time>2023-05-18T11:00:09+02:00</time>
      </trkpt>
      <trkpt lat="44.19206" lon="4.2336">
        <ele>195</ele>
        <time>2023-05-18T11:00:24+02:00</time>
      </trkpt>
      <trkpt lat="44.19214" lon="4.23345">
        <ele>196</ele>
        <time>2023-05-18T11:00:37+02:00</time>
      </trkpt>
      <trkpt lat="44.19226" lon="4.23332">
        <ele>197</ele>
        <time>2023-05-18T11:00:51+02:00</time>
      </trkpt>
      <trkpt lat="44.19236" lon="4.23317">
        <ele>198</ele>
        <time>2023-05-18T11:01:05+02:00</time>
      </trkpt>
      <trkpt lat="44.19242" lon="4.23298">
        <ele>199</ele>
        <time>2023-05-18T11:01:18+02:00</time>
      </trkpt>
      <trkpt lat="44.19253" lon="4.23283">
        <ele>199</ele>
        <time>2023-05-18T11:01:33+02:00</time>
      </trkpt>
      <trkpt lat="44.19259" lon="4.23262">
        <ele>201</ele>
        <time>2023-05-18T11:01:44+02:00</time>
      </trkpt>
      <trkpt lat="44.19267" lon="4.23247">
        <ele>201</ele>
        <time>2023-05-18T11:01:58+02:00</time>
      </trkpt>
      <trkpt lat="44.19279" lon="4.23235">
        <ele>201</ele>
        <time>2023-05-18T11:02:12+02:00</time>
      </trkpt>
      <trkpt lat="44.19288" lon="4.23222">
        <ele>201</ele>
        <time>2023-05-18T11:02:23+02:00</time>
      </trkpt>
      <trkpt lat="44.19297" lon="4.23203">
        <ele>202</ele>
        <time>2023-05-18T11:02:38+02:00</time>
      </trkpt>
      <trkpt lat="44.19306" lon="4.23186">
        <ele>201</ele>
        <time>2023-05-18T11:02:52+02:00</time>
      </trkpt>
      <trkpt lat="44.19316" lon="4.23171">
        <ele>201</ele>
        <time>2023-05-18T11:03:06+02:00</time>
      </trkpt>
      <trkpt lat="44.19325" lon="4.23154">
        <ele>201</ele>
        <time>2023-05-18T11:03:22+02:00</time>
      </trkpt>
      <trkpt lat="44.19336" lon="4.23139">
        <ele>201</ele>
        <time>2023-05-18T11:03:36+02:00</time>
      </trkpt>
      <trkpt lat="44.19346" lon="4.23122">
        <ele>200</ele>
        <time>2023-05-18T11:03:49+02:00</time>
      </trkpt>
      <trkpt lat="44.19353" lon="4.23104">
        <ele>199</ele>
        <time>2023-05-18T11:04:03+02:00</time>
      </trkpt>
      <trkpt lat="44.19363" lon="4.2309">
        <ele>197</ele>
        <time>2023-05-18T11:04:16+02:00</time>
      </trkpt>
      <trkpt lat="44.19377" lon="4.23079">
        <ele>196</ele>
        <time>2023-05-18T11:04:32+02:00</time>
      </trkpt>
      <trkpt lat="44.1939" lon="4.23069">
        <ele>195</ele>
        <time>2023-05-18T11:04:46+02:00</time>
      </trkpt>
      <trkpt lat="44.19406" lon="4.23068">
        <ele>194</ele>
        <time>2023-05-18T11:05:00+02:00</time>
      </trkpt>
      <trkpt lat="44.19419" lon="4.23074">
        <ele>193</ele>
        <time>2023-05-18T11:05:13+02:00</time>
      </trkpt>
      <trkpt lat="44.19434" lon="4.23079">
        <ele>193</ele>
        <time>2023-05-18T11:05:29+02:00</time>
      </trkpt>
      <trkpt lat="44.19448" lon="4.23079">
        <ele>191</ele>
        <time>2023-05-18T11:06:28+02:00</time>
      </trkpt>
      <trkpt lat="44.1946" lon="4.23089">
        <ele>191</ele>
        <time>2023-05-18T11:06:51+02:00</time>
      </trkpt>
      <trkpt lat="44.19473" lon="4.23093">
        <ele>189</ele>
        <time>2023-05-18T11:07:06+02:00</time>
      </trkpt>
      <trkpt lat="44.19486" lon="4.231">
        <ele>188</ele>
        <time>2023-05-18T11:07:19+02:00</time>
      </trkpt>
      <trkpt lat="44.19499" lon="4.23109">
        <ele>187</ele>
        <time>2023-05-18T11:07:31+02:00</time>
      </trkpt>
      <trkpt lat="44.19514" lon="4.23118">
        <ele>186</ele>
        <time>2023-05-18T11:07:44+02:00</time>
      </trkpt>
      <trkpt lat="44.1953" lon="4.23118">
        <ele>184</ele>
        <time>2023-05-18T11:07:57+02:00</time>
      </trkpt>
      <trkpt lat="44.19545" lon="4.23126">
        <ele>183</ele>
        <time>2023-05-18T11:08:16+02:00</time>
      </trkpt>
      <trkpt lat="44.1956" lon="4.23127">
        <ele>182</ele>
        <time>2023-05-18T11:08:30+02:00</time>
      </trkpt>
      <trkpt lat="44.19575" lon="4.23133">
        <ele>182</ele>
        <time>2023-05-18T11:08:42+02:00</time>
      </trkpt>
      <trkpt lat="44.1959" lon="4.23136">
        <ele>182</ele>
        <time>2023-05-18T11:08:56+02:00</time>
      </trkpt>
      <trkpt lat="44.19606" lon="4.23142">
        <ele>181</ele>
        <time>2023-05-18T11:09:18+02:00</time>
      </trkpt>
      <trkpt lat="44.1962" lon="4.23148">
        <ele>180</ele>
        <time>2023-05-18T11:09:31+02:00</time>
      </trkpt>
      <trkpt lat="44.19636" lon="4.23154">
        <ele>180</ele>
        <time>2023-05-18T11:09:49+02:00</time>
      </trkpt>
      <trkpt lat="44.1965" lon="4.23159">
        <ele>181</ele>
        <time>2023-05-18T11:10:03+02:00</time>
      </trkpt>
      <trkpt lat="44.19665" lon="4.23165">
        <ele>181</ele>
        <time>2023-05-18T11:10:17+02:00</time>
      </trkpt>
      <trkpt lat="44.19675" lon="4.23179">
        <ele>181</ele>
        <time>2023-05-18T11:10:31+02:00</time>
      </trkpt>
      <trkpt lat="44.19686" lon="4.23195">
        <ele>181</ele>
        <time>2023-05-18T11:10:49+02:00</time>
      </trkpt>
      <trkpt lat="44.19692" lon="4.23214">
        <ele>181</ele>
        <time>2023-05-18T11:11:03+02:00</time>
      </trkpt>
      <trkpt lat="44.19694" lon="4.23235">
        <ele>181</ele>
        <time>2023-05-18T11:11:18+02:00</time>
      </trkpt>
      <trkpt lat="44.19697" lon="4.23256">
        <ele>181</ele>
        <time>2023-05-18T11:11:32+02:00</time>
      </trkpt>
      <trkpt lat="44.19707" lon="4.2327">
        <ele>181</ele>
        <time>2023-05-18T11:11:48+02:00</time>
      </trkpt>
      <trkpt lat="44.19722" lon="4.23278">
        <ele>179</ele>
        <time>2023-05-18T11:12:08+02:00</time>
      </trkpt>
      <trkpt lat="44.19736" lon="4.23281">
        <ele>180</ele>
        <time>2023-05-18T11:12:41+02:00</time>
      </trkpt>
      <trkpt lat="44.19749" lon="4.23284">
        <ele>180</ele>
        <time>2023-05-18T11:12:54+02:00</time>
      </trkpt>
      <trkpt lat="44.19765" lon="4.23287">
        <ele>180</ele>
        <time>2023-05-18T11:13:12+02:00</time>
      </trkpt>
      <trkpt lat="44.19779" lon="4.2328">
        <ele>180</ele>
        <time>2023-05-18T11:13:28+02:00</time>
      </trkpt>
      <trkpt lat="44.19794" lon="4.23279">
        <ele>180</ele>
        <time>2023-05-18T11:13:46+02:00</time>
      </trkpt>
      <trkpt lat="44.19808" lon="4.23282">
        <ele>180</ele>
        <time>2023-05-18T11:14:03+02:00</time>
      </trkpt>
      <trkpt lat="44.19823" lon="4.23285">
        <ele>181</ele>
        <time>2023-05-18T11:14:18+02:00</time>
      </trkpt>
      <trkpt lat="44.19837" lon="4.23287">
        <ele>181</ele>
        <time>2023-05-18T11:14:32+02:00</time>
      </trkpt>
      <trkpt lat="44.19852" lon="4.2329">
        <ele>181</ele>
        <time>2023-05-18T11:14:46+02:00</time>
      </trkpt>
      <trkpt lat="44.19867" lon="4.23291">
        <ele>182</ele>
        <time>2023-05-18T11:15:04+02:00</time>
      </trkpt>
      <trkpt lat="44.19882" lon="4.23293">
        <ele>183</ele>
        <time>2023-05-18T11:15:21+02:00</time>
      </trkpt>
      <trkpt lat="44.19898" lon="4.23296">
        <ele>186</ele>
        <time>2023-05-18T11:15:41+02:00</time>
      </trkpt>
      <trkpt lat="44.19912" lon="4.23297">
        <ele>185</ele>
        <time>2023-05-18T11:15:55+02:00</time>
      </trkpt>
      <trkpt lat="44.19917" lon="4.23315">
        <ele>185</ele>
        <time>2023-05-18T11:17:18+02:00</time>
      </trkpt>
      <trkpt lat="44.19913" lon="4.23334">
        <ele>187</ele>
        <time>2023-05-18T11:17:33+02:00</time>
      </trkpt>
      <trkpt lat="44.19903" lon="4.23352">
        <ele>187</ele>
        <time>2023-05-18T11:17:45+02:00</time>
      </trkpt>
      <trkpt lat="44.19896" lon="4.23372">
        <ele>187</ele>
        <time>2023-05-18T11:17:58+02:00</time>
      </trkpt>
      <trkpt lat="44.19893" lon="4.2339">
        <ele>187</ele>
        <time>2023-05-18T11:18:09+02:00</time>
      </trkpt>
      <trkpt lat="44.19887" lon="4.2341">
        <ele>187</ele>
        <time>2023-05-18T11:18:26+02:00</time>
      </trkpt>
      <trkpt lat="44.1988" lon="4.23429">
        <ele>187</ele>
        <time>2023-05-18T11:18:39+02:00</time>
      </trkpt>
      <trkpt lat="44.19875" lon="4.23448">
        <ele>187</ele>
        <time>2023-05-18T11:18:53+02:00</time>
      </trkpt>
      <trkpt lat="44.19874" lon="4.23468">
        <ele>187</ele>
        <time>2023-05-18T11:19:16+02:00</time>
      </trkpt>
      <trkpt lat="44.19869" lon="4.23489">
        <ele>187</ele>
        <time>2023-05-18T11:19:29+02:00</time>
      </trkpt>
      <trkpt lat="44.19862" lon="4.23509">
        <ele>187</ele>
        <time>2023-05-18T11:19:45+02:00</time>
      </trkpt>
      <trkpt lat="44.19858" lon="4.23527">
        <ele>187</ele>
        <time>2023-05-18T11:19:56+02:00</time>
      </trkpt>
      <trkpt lat="44.19852" lon="4.23548">
        <ele>187</ele>
        <time>2023-05-18T11:20:11+02:00</time>
      </trkpt>
      <trkpt lat="44.19848" lon="4.2357">
        <ele>187</ele>
        <time>2023-05-18T11:20:26+02:00</time>
      </trkpt>
      <trkpt lat="44.19842" lon="4.2359">
        <ele>187</ele>
        <time>2023-05-18T11:20:40+02:00</time>
      </trkpt>
      <trkpt lat="44.19837" lon="4.2361">
        <ele>186</ele>
        <time>2023-05-18T11:20:57+02:00</time>
      </trkpt>
      <trkpt lat="44.19835" lon="4.23631">
        <ele>186</ele>
        <time>2023-05-18T11:21:12+02:00</time>
      </trkpt>
      <trkpt lat="44.19838" lon="4.2365">
        <ele>184</ele>
        <time>2023-05-18T11:21:25+02:00</time>
      </trkpt>
      <trkpt lat="44.1984" lon="4.23671">
        <ele>184</ele>
        <time>2023-05-18T11:21:38+02:00</time>
      </trkpt>
      <trkpt lat="44.19841" lon="4.23693">
        <ele>183</ele>
        <time>2023-05-18T11:21:52+02:00</time>
      </trkpt>
      <trkpt lat="44.19841" lon="4.23716">
        <ele>183</ele>
        <time>2023-05-18T11:22:06+02:00</time>
      </trkpt>
      <trkpt lat="44.19841" lon="4.23738">
        <ele>183</ele>
        <time>2023-05-18T11:22:19+02:00</time>
      </trkpt>
      <trkpt lat="44.19843" lon="4.2376">
        <ele>183</ele>
        <time>2023-05-18T11:22:33+02:00</time>
      </trkpt>
      <trkpt lat="44.19845" lon="4.23783">
        <ele>182</ele>
        <time>2023-05-18T11:22:47+02:00</time>
      </trkpt>
      <trkpt lat="44.1985" lon="4.23803">
        <ele>182</ele>
        <time>2023-05-18T11:23:00+02:00</time>
      </trkpt>
      <trkpt lat="44.19854" lon="4.23823">
        <ele>182</ele>
        <time>2023-05-18T11:23:13+02:00</time>
      </trkpt>
      <trkpt lat="44.19854" lon="4.23844">
        <ele>181</ele>
        <time>2023-05-18T11:23:25+02:00</time>
      </trkpt>
      <trkpt lat="44.19852" lon="4.23868">
        <ele>181</ele>
        <time>2023-05-18T11:23:40+02:00</time>
      </trkpt>
      <trkpt lat="44.19852" lon="4.2389">
        <ele>180</ele>
        <time>2023-05-18T11:23:53+02:00</time>
      </trkpt>
      <trkpt lat="44.19862" lon="4.2391">
        <ele>181</ele>
        <time>2023-05-18T11:24:07+02:00</time>
      </trkpt>
      <trkpt lat="44.19869" lon="4.2393">
        <ele>180</ele>
        <time>2023-05-18T11:24:21+02:00</time>
      </trkpt>
      <trkpt lat="44.19875" lon="4.23949">
        <ele>180</ele>
        <time>2023-05-18T11:24:34+02:00</time>
      </trkpt>
      <trkpt lat="44.19883" lon="4.23968">
        <ele>180</ele>
        <time>2023-05-18T11:24:47+02:00</time>
      </trkpt>
      <trkpt lat="44.19892" lon="4.23989">
        <ele>180</ele>
        <time>2023-05-18T11:25:02+02:00</time>
      </trkpt>
      <trkpt lat="44.19897" lon="4.24006">
        <ele>180</ele>
        <time>2023-05-18T11:25:19+02:00</time>
      </trkpt>
      <trkpt lat="44.19899" lon="4.24027">
        <ele>180</ele>
        <time>2023-05-18T11:25:37+02:00</time>
      </trkpt>
      <trkpt lat="44.19899" lon="4.2405">
        <ele>179</ele>
        <time>2023-05-18T11:25:54+02:00</time>
      </trkpt>
      <trkpt lat="44.199" lon="4.24072">
        <ele>178</ele>
        <time>2023-05-18T11:26:08+02:00</time>
      </trkpt>
      <trkpt lat="44.19902" lon="4.24093">
        <ele>178</ele>
        <time>2023-05-18T11:26:21+02:00</time>
      </trkpt>
      <trkpt lat="44.19906" lon="4.24112">
        <ele>178</ele>
        <time>2023-05-18T11:26:32+02:00</time>
      </trkpt>
      <trkpt lat="44.19908" lon="4.24133">
        <ele>177</ele>
        <time>2023-05-18T11:26:43+02:00</time>
      </trkpt>
      <trkpt lat="44.19916" lon="4.24148">
        <ele>178</ele>
        <time>2023-05-18T11:27:11+02:00</time>
      </trkpt>
      <trkpt lat="44.19919" lon="4.24167">
        <ele>177</ele>
        <time>2023-05-18T11:27:28+02:00</time>
      </trkpt>
      <trkpt lat="44.19915" lon="4.24188">
        <ele>179</ele>
        <time>2023-05-18T11:27:41+02:00</time>
      </trkpt>
      <trkpt lat="44.1991" lon="4.24207">
        <ele>179</ele>
        <time>2023-05-18T11:27:55+02:00</time>
      </trkpt>
      <trkpt lat="44.19898" lon="4.24219">
        <ele>179</ele>
        <time>2023-05-18T11:28:09+02:00</time>
      </trkpt>
      <trkpt lat="44.19888" lon="4.24236">
        <ele>179</ele>
        <time>2023-05-18T11:28:24+02:00</time>
      </trkpt>
      <trkpt lat="44.19878" lon="4.24251">
        <ele>178</ele>
        <time>2023-05-18T11:29:04+02:00</time>
      </trkpt>
      <trkpt lat="44.19865" lon="4.24263">
        <ele>178</ele>
        <time>2023-05-18T11:29:16+02:00</time>
      </trkpt>
      <trkpt lat="44.19858" lon="4.24284">
        <ele>179</ele>
        <time>2023-05-18T11:29:48+02:00</time>
      </trkpt>
      <trkpt lat="44.19852" lon="4.24303">
        <ele>178</ele>
        <time>2023-05-18T11:29:59+02:00</time>
      </trkpt>
      <trkpt lat="44.19843" lon="4.24322">
        <ele>178</ele>
        <time>2023-05-18T11:30:10+02:00</time>
      </trkpt>
      <trkpt lat="44.19835" lon="4.24337">
        <ele>177</ele>
        <time>2023-05-18T11:30:23+02:00</time>
      </trkpt>
      <trkpt lat="44.1983" lon="4.24356">
        <ele>177</ele>
        <time>2023-05-18T11:30:34+02:00</time>
      </trkpt>
      <trkpt lat="44.19831" lon="4.24377">
        <ele>178</ele>
        <time>2023-05-18T11:30:48+02:00</time>
      </trkpt>
      <trkpt lat="44.19827" lon="4.24398">
        <ele>179</ele>
        <time>2023-05-18T11:31:17+02:00</time>
      </trkpt>
      <trkpt lat="44.19815" lon="4.24411">
        <ele>178</ele>
        <time>2023-05-18T11:31:32+02:00</time>
      </trkpt>
      <trkpt lat="44.19803" lon="4.24424">
        <ele>178</ele>
        <time>2023-05-18T11:31:46+02:00</time>
      </trkpt>
      <trkpt lat="44.19807" lon="4.24444">
        <ele>179</ele>
        <time>2023-05-18T11:31:59+02:00</time>
      </trkpt>
      <trkpt lat="44.19821" lon="4.24456">
        <ele>179</ele>
        <time>2023-05-18T11:32:13+02:00</time>
      </trkpt>
      <trkpt lat="44.19833" lon="4.24469">
        <ele>179</ele>
        <time>2023-05-18T11:32:27+02:00</time>
      </trkpt>
      <trkpt lat="44.19846" lon="4.24482">
        <ele>180</ele>
        <time>2023-05-18T11:32:41+02:00</time>
      </trkpt>
      <trkpt lat="44.19858" lon="4.24496">
        <ele>179</ele>
        <time>2023-05-18T11:32:54+02:00</time>
      </trkpt>
      <trkpt lat="44.1987" lon="4.24511">
        <ele>179</ele>
        <time>2023-05-18T11:33:07+02:00</time>
      </trkpt>
      <trkpt lat="44.19883" lon="4.24524">
        <ele>179</ele>
        <time>2023-05-18T11:33:23+02:00</time>
      </trkpt>
      <trkpt lat="44.19897" lon="4.24535">
        <ele>180</ele>
        <time>2023-05-18T11:33:37+02:00</time>
      </trkpt>
      <trkpt lat="44.1991" lon="4.24542">
        <ele>180</ele>
        <time>2023-05-18T11:33:48+02:00</time>
      </trkpt>
      <trkpt lat="44.19923" lon="4.24551">
        <ele>180</ele>
        <time>2023-05-18T11:34:01+02:00</time>
      </trkpt>
      <trkpt lat="44.19937" lon="4.24557">
        <ele>180</ele>
        <time>2023-05-18T11:34:14+02:00</time>
      </trkpt>
      <trkpt lat="44.19952" lon="4.24558">
        <ele>179</ele>
        <time>2023-05-18T11:34:30+02:00</time>
      </trkpt>
      <trkpt lat="44.19966" lon="4.24563">
        <ele>179</ele>
        <time>2023-05-18T11:34:40+02:00</time>
      </trkpt>
      <trkpt lat="44.1998" lon="4.24561">
        <ele>179</ele>
        <time>2023-05-18T11:34:51+02:00</time>
      </trkpt>
      <trkpt lat="44.19994" lon="4.24563">
        <ele>179</ele>
        <time>2023-05-18T11:35:04+02:00</time>
      </trkpt>
      <trkpt lat="44.20009" lon="4.24571">
        <ele>179</ele>
        <time>2023-05-18T11:35:21+02:00</time>
      </trkpt>
      <trkpt lat="44.20023" lon="4.24575">
        <ele>179</ele>
        <time>2023-05-18T11:35:35+02:00</time>
      </trkpt>
      <trkpt lat="44.20038" lon="4.24582">
        <ele>179</ele>
        <time>2023-05-18T11:35:49+02:00</time>
      </trkpt>
      <trkpt lat="44.20053" lon="4.24592">
        <ele>179</ele>
        <time>2023-05-18T11:36:03+02:00</time>
      </trkpt>
      <trkpt lat="44.20068" lon="4.24599">
        <ele>179</ele>
        <time>2023-05-18T11:36:17+02:00</time>
      </trkpt>
      <trkpt lat="44.20084" lon="4.24606">
        <ele>179</ele>
        <time>2023-05-18T11:36:32+02:00</time>
      </trkpt>
      <trkpt lat="44.2007" lon="4.24596">
        <ele>179</ele>
        <time>2023-05-18T11:36:58+02:00</time>
      </trkpt>
      <trkpt lat="44.20063" lon="4.24613">
        <ele>180</ele>
        <time>2023-05-18T11:37:19+02:00</time>
      </trkpt>
      <trkpt lat="44.20059" lon="4.24632">
        <ele>179</ele>
        <time>2023-05-18T11:37:29+02:00</time>
      </trkpt>
      <trkpt lat="44.20053" lon="4.24652">
        <ele>180</ele>
        <time>2023-05-18T11:37:44+02:00</time>
      </trkpt>
      <trkpt lat="44.20047" lon="4.2467">
        <ele>184</ele>
        <time>2023-05-18T11:37:59+02:00</time>
      </trkpt>
      <trkpt lat="44.20058" lon="4.24685">
        <ele>185</ele>
        <time>2023-05-18T11:38:16+02:00</time>
      </trkpt>
      <trkpt lat="44.20073" lon="4.24696">
        <ele>185</ele>
        <time>2023-05-18T11:38:27+02:00</time>
      </trkpt>
      <trkpt lat="44.20086" lon="4.24711">
        <ele>185</ele>
        <time>2023-05-18T11:38:39+02:00</time>
      </trkpt>
      <trkpt lat="44.20083" lon="4.2473">
        <ele>187</ele>
        <time>2023-05-18T11:38:59+02:00</time>
      </trkpt>
      <trkpt lat="44.2008" lon="4.2475">
        <ele>189</ele>
        <time>2023-05-18T11:39:16+02:00</time>
      </trkpt>
      <trkpt lat="44.20083" lon="4.24772">
        <ele>192</ele>
        <time>2023-05-18T11:39:35+02:00</time>
      </trkpt>
      <trkpt lat="44.20085" lon="4.24795">
        <ele>196</ele>
        <time>2023-05-18T11:39:51+02:00</time>
      </trkpt>
      <trkpt lat="44.20086" lon="4.24816">
        <ele>199</ele>
        <time>2023-05-18T11:40:05+02:00</time>
      </trkpt>
      <trkpt lat="44.20086" lon="4.24837">
        <ele>201</ele>
        <time>2023-05-18T11:40:22+02:00</time>
      </trkpt>
      <trkpt lat="44.20086" lon="4.24859">
        <ele>204</ele>
        <time>2023-05-18T11:40:36+02:00</time>
      </trkpt>
      <trkpt lat="44.20076" lon="4.24872">
        <ele>207</ele>
        <time>2023-05-18T11:40:55+02:00</time>
      </trkpt>
      <trkpt lat="44.20061" lon="4.2488">
        <ele>211</ele>
        <time>2023-05-18T11:41:14+02:00</time>
      </trkpt>
      <trkpt lat="44.20049" lon="4.24893">
        <ele>214</ele>
        <time>2023-05-18T11:41:29+02:00</time>
      </trkpt>
      <trkpt lat="44.2004" lon="4.24907">
        <ele>217</ele>
        <time>2023-05-18T11:41:52+02:00</time>
      </trkpt>
      <trkpt lat="44.2003" lon="4.24925">
        <ele>220</ele>
        <time>2023-05-18T11:42:14+02:00</time>
      </trkpt>
      <trkpt lat="44.20022" lon="4.24945">
        <ele>222</ele>
        <time>2023-05-18T11:42:30+02:00</time>
      </trkpt>
      <trkpt lat="44.20015" lon="4.24964">
        <ele>225</ele>
        <time>2023-05-18T11:42:44+02:00</time>
      </trkpt>
      <trkpt lat="44.20004" lon="4.24976">
        <ele>228</ele>
        <time>2023-05-18T11:42:55+02:00</time>
      </trkpt>
      <trkpt lat="44.19995" lon="4.24992">
        <ele>230</ele>
        <time>2023-05-18T11:43:07+02:00</time>
      </trkpt>
      <trkpt lat="44.19987" lon="4.25011">
        <ele>232</ele>
        <time>2023-05-18T11:43:22+02:00</time>
      </trkpt>
      <trkpt lat="44.19983" lon="4.25029">
        <ele>234</ele>
        <time>2023-05-18T11:43:35+02:00</time>
      </trkpt>
      <trkpt lat="44.19977" lon="4.25049">
        <ele>235</ele>
        <time>2023-05-18T11:43:47+02:00</time>
      </trkpt>
      <trkpt lat="44.19974" lon="4.25067">
        <ele>237</ele>
        <time>2023-05-18T11:43:58+02:00</time>
      </trkpt>
      <trkpt lat="44.19971" lon="4.25089">
        <ele>238</ele>
        <time>2023-05-18T11:44:12+02:00</time>
      </trkpt>
      <trkpt lat="44.19968" lon="4.25109">
        <ele>240</ele>
        <time>2023-05-18T11:44:26+02:00</time>
      </trkpt>
      <trkpt lat="44.19962" lon="4.25127">
        <ele>241</ele>
        <time>2023-05-18T11:44:40+02:00</time>
      </trkpt>
      <trkpt lat="44.19957" lon="4.25146">
        <ele>243</ele>
        <time>2023-05-18T11:44:53+02:00</time>
      </trkpt>
      <trkpt lat="44.1995" lon="4.25164">
        <ele>243</ele>
        <time>2023-05-18T11:45:07+02:00</time>
      </trkpt>
      <trkpt lat="44.19938" lon="4.25178">
        <ele>245</ele>
        <time>2023-05-18T11:46:16+02:00</time>
      </trkpt>
      <trkpt lat="44.19932" lon="4.25195">
        <ele>246</ele>
        <time>2023-05-18T11:46:23+02:00</time>
      </trkpt>
      <trkpt lat="44.19923" lon="4.25214">
        <ele>246</ele>
        <time>2023-05-18T11:46:31+02:00</time>
      </trkpt>
      <trkpt lat="44.19916" lon="4.25233">
        <ele>248</ele>
        <time>2023-05-18T11:46:43+02:00</time>
      </trkpt>
      <trkpt lat="44.19907" lon="4.25247">
        <ele>250</ele>
        <time>2023-05-18T11:46:54+02:00</time>
      </trkpt>
      <trkpt lat="44.19904" lon="4.25267">
        <ele>251</ele>
        <time>2023-05-18T11:47:05+02:00</time>
      </trkpt>
      <trkpt lat="44.19899" lon="4.25285">
        <ele>252</ele>
        <time>2023-05-18T11:47:16+02:00</time>
      </trkpt>
      <trkpt lat="44.19891" lon="4.25303">
        <ele>253</ele>
        <time>2023-05-18T11:47:29+02:00</time>
      </trkpt>
      <trkpt lat="44.19882" lon="4.25322">
        <ele>254</ele>
        <time>2023-05-18T11:47:43+02:00</time>
      </trkpt>
      <trkpt lat="44.19875" lon="4.25341">
        <ele>255</ele>
        <time>2023-05-18T11:47:57+02:00</time>
      </trkpt>
      <trkpt lat="44.19869" lon="4.25361">
        <ele>255</ele>
        <time>2023-05-18T11:48:10+02:00</time>
      </trkpt>
      <trkpt lat="44.19863" lon="4.25382">
        <ele>256</ele>
        <time>2023-05-18T11:48:24+02:00</time>
      </trkpt>
      <trkpt lat="44.19855" lon="4.25401">
        <ele>256</ele>
        <time>2023-05-18T11:48:37+02:00</time>
      </trkpt>
      <trkpt lat="44.19848" lon="4.2542">
        <ele>258</ele>
        <time>2023-05-18T11:48:55+02:00</time>
      </trkpt>
      <trkpt lat="44.19842" lon="4.25439">
        <ele>258</ele>
        <time>2023-05-18T11:49:12+02:00</time>
      </trkpt>
      <trkpt lat="44.19836" lon="4.25459">
        <ele>259</ele>
        <time>2023-05-18T11:50:38+02:00</time>
      </trkpt>
      <trkpt lat="44.19828" lon="4.25475">
        <ele>260</ele>
        <time>2023-05-18T11:50:54+02:00</time>
      </trkpt>
      <trkpt lat="44.19824" lon="4.25495">
        <ele>261</ele>
        <time>2023-05-18T11:52:00+02:00</time>
      </trkpt>
      <trkpt lat="44.19817" lon="4.25514">
        <ele>261</ele>
        <time>2023-05-18T11:52:29+02:00</time>
      </trkpt>
      <trkpt lat="44.19813" lon="4.25536">
        <ele>262</ele>
        <time>2023-05-18T11:52:59+02:00</time>
      </trkpt>
      <trkpt lat="44.19811" lon="4.25555">
        <ele>262</ele>
        <time>2023-05-18T11:53:12+02:00</time>
      </trkpt>
      <trkpt lat="44.19802" lon="4.25572">
        <ele>263</ele>
        <time>2023-05-18T11:53:32+02:00</time>
      </trkpt>
      <trkpt lat="44.19793" lon="4.25587">
        <ele>264</ele>
        <time>2023-05-18T11:54:00+02:00</time>
      </trkpt>
      <trkpt lat="44.19786" lon="4.25605">
        <ele>266</ele>
        <time>2023-05-18T11:54:25+02:00</time>
      </trkpt>
      <trkpt lat="44.19783" lon="4.25624">
        <ele>267</ele>
        <time>2023-05-18T11:54:39+02:00</time>
      </trkpt>
      <trkpt lat="44.19783" lon="4.25645">
        <ele>268</ele>
        <time>2023-05-18T11:54:58+02:00</time>
      </trkpt>
      <trkpt lat="44.19784" lon="4.25665">
        <ele>269</ele>
        <time>2023-05-18T11:55:15+02:00</time>
      </trkpt>
      <trkpt lat="44.19786" lon="4.25687">
        <ele>270</ele>
        <time>2023-05-18T11:55:35+02:00</time>
      </trkpt>
      <trkpt lat="44.19785" lon="4.25708">
        <ele>271</ele>
        <time>2023-05-18T11:55:51+02:00</time>
      </trkpt>
      <trkpt lat="44.19788" lon="4.25729">
        <ele>271</ele>
        <time>2023-05-18T11:56:09+02:00</time>
      </trkpt>
      <trkpt lat="44.19789" lon="4.2575">
        <ele>273</ele>
        <time>2023-05-18T11:56:26+02:00</time>
      </trkpt>
      <trkpt lat="44.19791" lon="4.25771">
        <ele>273</ele>
        <time>2023-05-18T11:56:42+02:00</time>
      </trkpt>
      <trkpt lat="44.1979" lon="4.25792">
        <ele>273</ele>
        <time>2023-05-18T11:57:08+02:00</time>
      </trkpt>
      <trkpt lat="44.19787" lon="4.25815">
        <ele>273</ele>
        <time>2023-05-18T11:57:22+02:00</time>
      </trkpt>
      <trkpt lat="44.19786" lon="4.25837">
        <ele>272</ele>
        <time>2023-05-18T11:57:41+02:00</time>
      </trkpt>
      <trkpt lat="44.19782" lon="4.25857">
        <ele>272</ele>
        <time>2023-05-18T11:57:57+02:00</time>
      </trkpt>
      <trkpt lat="44.19777" lon="4.25878">
        <ele>270</ele>
        <time>2023-05-18T11:58:14+02:00</time>
      </trkpt>
      <trkpt lat="44.1977" lon="4.25895">
        <ele>269</ele>
        <time>2023-05-18T11:58:25+02:00</time>
      </trkpt>
      <trkpt lat="44.19764" lon="4.25913">
        <ele>267</ele>
        <time>2023-05-18T11:58:38+02:00</time>
      </trkpt>
      <trkpt lat="44.19757" lon="4.25929">
        <ele>265</ele>
        <time>2023-05-18T11:58:48+02:00</time>
      </trkpt>
      <trkpt lat="44.19749" lon="4.25948">
        <ele>265</ele>
        <time>2023-05-18T11:59:02+02:00</time>
      </trkpt>
      <trkpt lat="44.1974" lon="4.25966">
        <ele>264</ele>
        <time>2023-05-18T11:59:16+02:00</time>
      </trkpt>
      <trkpt lat="44.19735" lon="4.25985">
        <ele>264</ele>
        <time>2023-05-18T11:59:30+02:00</time>
      </trkpt>
      <trkpt lat="44.1973" lon="4.26004">
        <ele>264</ele>
        <time>2023-05-18T11:59:41+02:00</time>
      </trkpt>
      <trkpt lat="44.19725" lon="4.26023">
        <ele>264</ele>
        <time>2023-05-18T11:59:55+02:00</time>
      </trkpt>
      <trkpt lat="44.19716" lon="4.26038">
        <ele>264</ele>
        <time>2023-05-18T12:00:06+02:00</time>
      </trkpt>
      <trkpt lat="44.19708" lon="4.26058">
        <ele>265</ele>
        <time>2023-05-18T12:00:21+02:00</time>
      </trkpt>
      <trkpt lat="44.19701" lon="4.26078">
        <ele>266</ele>
        <time>2023-05-18T12:00:35+02:00</time>
      </trkpt>
      <trkpt lat="44.19694" lon="4.261">
        <ele>267</ele>
        <time>2023-05-18T12:00:49+02:00</time>
      </trkpt>
      <trkpt lat="44.19686" lon="4.26118">
        <ele>268</ele>
        <time>2023-05-18T12:01:02+02:00</time>
      </trkpt>
      <trkpt lat="44.1968" lon="4.26136">
        <ele>268</ele>
        <time>2023-05-18T12:01:15+02:00</time>
      </trkpt>
      <trkpt lat="44.19672" lon="4.26156">
        <ele>269</ele>
        <time>2023-05-18T12:01:29+02:00</time>
      </trkpt>
      <trkpt lat="44.19667" lon="4.26177">
        <ele>269</ele>
        <time>2023-05-18T12:01:51+02:00</time>
      </trkpt>
      <trkpt lat="44.19664" lon="4.26196">
        <ele>270</ele>
        <time>2023-05-18T12:02:05+02:00</time>
      </trkpt>
      <trkpt lat="44.19675" lon="4.26211">
        <ele>270</ele>
        <time>2023-05-18T12:02:21+02:00</time>
      </trkpt>
      <trkpt lat="44.19684" lon="4.2623">
        <ele>270</ele>
        <time>2023-05-18T12:02:37+02:00</time>
      </trkpt>
      <trkpt lat="44.19693" lon="4.26248">
        <ele>271</ele>
        <time>2023-05-18T12:02:52+02:00</time>
      </trkpt>
      <trkpt lat="44.19701" lon="4.26267">
        <ele>273</ele>
        <time>2023-05-18T12:03:08+02:00</time>
      </trkpt>
      <trkpt lat="44.19708" lon="4.26286">
        <ele>273</ele>
        <time>2023-05-18T12:03:26+02:00</time>
      </trkpt>
      <trkpt lat="44.19693" lon="4.26292">
        <ele>273</ele>
        <time>2023-05-18T12:05:16+02:00</time>
      </trkpt>
      <trkpt lat="44.19678" lon="4.26291">
        <ele>276</ele>
        <time>2023-05-18T12:05:31+02:00</time>
      </trkpt>
      <trkpt lat="44.19687" lon="4.2631">
        <ele>279</ele>
        <time>2023-05-18T12:05:49+02:00</time>
      </trkpt>
      <trkpt lat="44.19687" lon="4.26329">
        <ele>282</ele>
        <time>2023-05-18T12:06:07+02:00</time>
      </trkpt>
      <trkpt lat="44.1969" lon="4.26351">
        <ele>286</ele>
        <time>2023-05-18T12:06:24+02:00</time>
      </trkpt>
      <trkpt lat="44.1969" lon="4.26372">
        <ele>291</ele>
        <time>2023-05-18T12:06:43+02:00</time>
      </trkpt>
      <trkpt lat="44.1969" lon="4.26394">
        <ele>294</ele>
        <time>2023-05-18T12:07:00+02:00</time>
      </trkpt>
      <trkpt lat="44.19682" lon="4.2641">
        <ele>298</ele>
        <time>2023-05-18T12:07:17+02:00</time>
      </trkpt>
      <trkpt lat="44.19695" lon="4.26427">
        <ele>302</ele>
        <time>2023-05-18T12:07:53+02:00</time>
      </trkpt>
      <trkpt lat="44.19699" lon="4.26445">
        <ele>304</ele>
        <time>2023-05-18T12:08:07+02:00</time>
      </trkpt>
      <trkpt lat="44.19697" lon="4.26464">
        <ele>307</ele>
        <time>2023-05-18T12:08:22+02:00</time>
      </trkpt>
      <trkpt lat="44.19705" lon="4.26482">
        <ele>309</ele>
        <time>2023-05-18T12:08:38+02:00</time>
      </trkpt>
      <trkpt lat="44.19712" lon="4.265">
        <ele>311</ele>
        <time>2023-05-18T12:09:06+02:00</time>
      </trkpt>
      <trkpt lat="44.197" lon="4.26486">
        <ele>311</ele>
        <time>2023-05-18T12:10:05+02:00</time>
      </trkpt>
      <trkpt lat="44.19686" lon="4.26489">
        <ele>313</ele>
        <time>2023-05-18T12:10:19+02:00</time>
      </trkpt>
      <trkpt lat="44.19691" lon="4.26507">
        <ele>318</ele>
        <time>2023-05-18T12:13:05+02:00</time>
      </trkpt>
      <trkpt lat="44.19677" lon="4.26516">
        <ele>318</ele>
        <time>2023-05-18T12:15:24+02:00</time>
      </trkpt>
      <trkpt lat="44.19683" lon="4.26534">
        <ele>321</ele>
        <time>2023-05-18T12:15:53+02:00</time>
      </trkpt>
      <trkpt lat="44.19682" lon="4.26556">
        <ele>324</ele>
        <time>2023-05-18T12:16:28+02:00</time>
      </trkpt>
      <trkpt lat="44.19688" lon="4.26577">
        <ele>324</ele>
        <time>2023-05-18T12:17:01+02:00</time>
      </trkpt>
      <trkpt lat="44.19684" lon="4.26556">
        <ele>323</ele>
        <time>2023-05-18T12:17:43+02:00</time>
      </trkpt>
      <trkpt lat="44.19685" lon="4.26537">
        <ele>321</ele>
        <time>2023-05-18T12:17:59+02:00</time>
      </trkpt>
      <trkpt lat="44.19685" lon="4.26517">
        <ele>317</ele>
        <time>2023-05-18T12:18:21+02:00</time>
      </trkpt>
      <trkpt lat="44.1968" lon="4.26536">
        <ele>319</ele>
        <time>2023-05-18T12:50:24+02:00</time>
      </trkpt>
      <trkpt lat="44.19686" lon="4.26552">
        <ele>321</ele>
        <time>2023-05-18T12:50:43+02:00</time>
      </trkpt>
      <trkpt lat="44.19687" lon="4.26576">
        <ele>323</ele>
        <time>2023-05-18T12:51:12+02:00</time>
      </trkpt>
      <trkpt lat="44.19687" lon="4.26595">
        <ele>323</ele>
        <time>2023-05-18T12:52:07+02:00</time>
      </trkpt>
      <trkpt lat="44.19684" lon="4.26614">
        <ele>321</ele>
        <time>2023-05-18T12:53:00+02:00</time>
      </trkpt>
      <trkpt lat="44.1968" lon="4.26634">
        <ele>318</ele>
        <time>2023-05-18T12:53:30+02:00</time>
      </trkpt>
      <trkpt lat="44.19692" lon="4.26649">
        <ele>316</ele>
        <time>2023-05-18T12:53:57+02:00</time>
      </trkpt>
      <trkpt lat="44.19687" lon="4.26668">
        <ele>314</ele>
        <time>2023-05-18T12:55:34+02:00</time>
      </trkpt>
      <trkpt lat="44.19689" lon="4.26688">
        <ele>314</ele>
        <time>2023-05-18T12:56:13+02:00</time>
      </trkpt>
      <trkpt lat="44.19688" lon="4.26708">
        <ele>317</ele>
        <time>2023-05-18T12:56:29+02:00</time>
      </trkpt>
      <trkpt lat="44.19685" lon="4.2673">
        <ele>321</ele>
        <time>2023-05-18T12:56:51+02:00</time>
      </trkpt>
      <trkpt lat="44.19675" lon="4.26748">
        <ele>323</ele>
        <time>2023-05-18T12:57:11+02:00</time>
      </trkpt>
      <trkpt lat="44.1967" lon="4.26767">
        <ele>327</ele>
        <time>2023-05-18T12:57:35+02:00</time>
      </trkpt>
      <trkpt lat="44.19671" lon="4.26786">
        <ele>331</ele>
        <time>2023-05-18T12:58:37+02:00</time>
      </trkpt>
      <trkpt lat="44.19667" lon="4.26807">
        <ele>334</ele>
        <time>2023-05-18T12:59:02+02:00</time>
      </trkpt>
      <trkpt lat="44.19664" lon="4.26827">
        <ele>336</ele>
        <time>2023-05-18T12:59:23+02:00</time>
      </trkpt>
      <trkpt lat="44.19656" lon="4.26843">
        <ele>338</ele>
        <time>2023-05-18T12:59:44+02:00</time>
      </trkpt>
      <trkpt lat="44.19652" lon="4.26865">
        <ele>338</ele>
        <time>2023-05-18T13:00:01+02:00</time>
      </trkpt>
      <trkpt lat="44.19649" lon="4.26883">
        <ele>338</ele>
        <time>2023-05-18T13:00:15+02:00</time>
      </trkpt>
      <trkpt lat="44.19647" lon="4.26903">
        <ele>339</ele>
        <time>2023-05-18T13:00:36+02:00</time>
      </trkpt>
      <trkpt lat="44.19647" lon="4.26923">
        <ele>339</ele>
        <time>2023-05-18T13:00:59+02:00</time>
      </trkpt>
      <trkpt lat="44.19648" lon="4.26942">
        <ele>336</ele>
        <time>2023-05-18T13:01:20+02:00</time>
      </trkpt>
      <trkpt lat="44.19655" lon="4.26959">
        <ele>336</ele>
        <time>2023-05-18T13:01:37+02:00</time>
      </trkpt>
      <trkpt lat="44.19656" lon="4.26979">
        <ele>335</ele>
        <time>2023-05-18T13:01:53+02:00</time>
      </trkpt>
      <trkpt lat="44.19657" lon="4.26998">
        <ele>333</ele>
        <time>2023-05-18T13:02:11+02:00</time>
      </trkpt>
      <trkpt lat="44.19654" lon="4.2702">
        <ele>333</ele>
        <time>2023-05-18T13:02:27+02:00</time>
      </trkpt>
      <trkpt lat="44.19647" lon="4.27037">
        <ele>332</ele>
        <time>2023-05-18T13:02:42+02:00</time>
      </trkpt>
      <trkpt lat="44.19641" lon="4.2706">
        <ele>332</ele>
        <time>2023-05-18T13:02:58+02:00</time>
      </trkpt>
      <trkpt lat="44.19638" lon="4.27079">
        <ele>332</ele>
        <time>2023-05-18T13:03:11+02:00</time>
      </trkpt>
      <trkpt lat="44.19637" lon="4.27101">
        <ele>332</ele>
        <time>2023-05-18T13:03:27+02:00</time>
      </trkpt>
      <trkpt lat="44.19639" lon="4.27121">
        <ele>333</ele>
        <time>2023-05-18T13:03:44+02:00</time>
      </trkpt>
      <trkpt lat="44.19643" lon="4.27142">
        <ele>338</ele>
        <time>2023-05-18T13:04:10+02:00</time>
      </trkpt>
      <trkpt lat="44.19654" lon="4.27153">
        <ele>340</ele>
        <time>2023-05-18T13:04:22+02:00</time>
      </trkpt>
      <trkpt lat="44.19668" lon="4.27159">
        <ele>342</ele>
        <time>2023-05-18T13:04:36+02:00</time>
      </trkpt>
      <trkpt lat="44.19681" lon="4.27166">
        <ele>346</ele>
        <time>2023-05-18T13:04:58+02:00</time>
      </trkpt>
      <trkpt lat="44.19693" lon="4.27181">
        <ele>349</ele>
        <time>2023-05-18T13:05:24+02:00</time>
      </trkpt>
      <trkpt lat="44.19705" lon="4.27195">
        <ele>350</ele>
        <time>2023-05-18T13:05:32+02:00</time>
      </trkpt>
      <trkpt lat="44.19713" lon="4.27212">
        <ele>353</ele>
        <time>2023-05-18T13:05:51+02:00</time>
      </trkpt>
      <trkpt lat="44.19724" lon="4.27228">
        <ele>355</ele>
        <time>2023-05-18T13:06:07+02:00</time>
      </trkpt>
      <trkpt lat="44.1973" lon="4.27247">
        <ele>358</ele>
        <time>2023-05-18T13:06:23+02:00</time>
      </trkpt>
      <trkpt lat="44.19715" lon="4.27243">
        <ele>360</ele>
        <time>2023-05-18T13:06:45+02:00</time>
      </trkpt>
      <trkpt lat="44.19699" lon="4.27237">
        <ele>362</ele>
        <time>2023-05-18T13:06:59+02:00</time>
      </trkpt>
      <trkpt lat="44.19685" lon="4.2724">
        <ele>364</ele>
        <time>2023-05-18T13:07:16+02:00</time>
      </trkpt>
      <trkpt lat="44.19672" lon="4.27245">
        <ele>366</ele>
        <time>2023-05-18T13:07:31+02:00</time>
      </trkpt>
      <trkpt lat="44.1966" lon="4.27256">
        <ele>368</ele>
        <time>2023-05-18T13:07:45+02:00</time>
      </trkpt>
      <trkpt lat="44.1965" lon="4.2727">
        <ele>371</ele>
        <time>2023-05-18T13:08:46+02:00</time>
      </trkpt>
      <trkpt lat="44.19643" lon="4.27286">
        <ele>373</ele>
        <time>2023-05-18T13:09:04+02:00</time>
      </trkpt>
      <trkpt lat="44.19636" lon="4.27305">
        <ele>374</ele>
        <time>2023-05-18T13:09:22+02:00</time>
      </trkpt>
      <trkpt lat="44.19632" lon="4.27325">
        <ele>376</ele>
        <time>2023-05-18T13:09:39+02:00</time>
      </trkpt>
      <trkpt lat="44.19627" lon="4.27344">
        <ele>378</ele>
        <time>2023-05-18T13:09:57+02:00</time>
      </trkpt>
      <trkpt lat="44.1962" lon="4.27364">
        <ele>380</ele>
        <time>2023-05-18T13:10:17+02:00</time>
      </trkpt>
      <trkpt lat="44.19615" lon="4.27381">
        <ele>383</ele>
        <time>2023-05-18T13:10:35+02:00</time>
      </trkpt>
      <trkpt lat="44.19608" lon="4.274">
        <ele>386</ele>
        <time>2023-05-18T13:10:57+02:00</time>
      </trkpt>
      <trkpt lat="44.19604" lon="4.27419">
        <ele>389</ele>
        <time>2023-05-18T13:11:26+02:00</time>
      </trkpt>
      <trkpt lat="44.19598" lon="4.27438">
        <ele>392</ele>
        <time>2023-05-18T13:11:47+02:00</time>
      </trkpt>
      <trkpt lat="44.19593" lon="4.27458">
        <ele>395</ele>
        <time>2023-05-18T13:12:09+02:00</time>
      </trkpt>
      <trkpt lat="44.19583" lon="4.27472">
        <ele>396</ele>
        <time>2023-05-18T13:14:08+02:00</time>
      </trkpt>
      <trkpt lat="44.19571" lon="4.27485">
        <ele>397</ele>
        <time>2023-05-18T13:14:23+02:00</time>
      </trkpt>
      <trkpt lat="44.19561" lon="4.275">
        <ele>399</ele>
        <time>2023-05-18T13:14:45+02:00</time>
      </trkpt>
      <trkpt lat="44.19548" lon="4.27514">
        <ele>402</ele>
        <time>2023-05-18T13:15:04+02:00</time>
      </trkpt>
      <trkpt lat="44.19536" lon="4.27526">
        <ele>403</ele>
        <time>2023-05-18T13:15:18+02:00</time>
      </trkpt>
      <trkpt lat="44.19526" lon="4.2754">
        <ele>406</ele>
        <time>2023-05-18T13:16:41+02:00</time>
      </trkpt>
      <trkpt lat="44.19524" lon="4.27563">
        <ele>406</ele>
        <time>2023-05-18T13:22:35+02:00</time>
      </trkpt>
      <trkpt lat="44.1951" lon="4.27566">
        <ele>407</ele>
        <time>2023-05-18T13:22:57+02:00</time>
      </trkpt>
      <trkpt lat="44.19514" lon="4.27584">
        <ele>407</ele>
        <time>2023-05-18T13:24:53+02:00</time>
      </trkpt>
      <trkpt lat="44.19506" lon="4.276">
        <ele>407</ele>
        <time>2023-05-18T13:25:04+02:00</time>
      </trkpt>
      <trkpt lat="44.19507" lon="4.27621">
        <ele>404</ele>
        <time>2023-05-18T13:26:28+02:00</time>
      </trkpt>
      <trkpt lat="44.19508" lon="4.27642">
        <ele>400</ele>
        <time>2023-05-18T13:26:42+02:00</time>
      </trkpt>
      <trkpt lat="44.19504" lon="4.2766">
        <ele>398</ele>
        <time>2023-05-18T13:26:56+02:00</time>
      </trkpt>
      <trkpt lat="44.19504" lon="4.2768">
        <ele>396</ele>
        <time>2023-05-18T13:27:09+02:00</time>
      </trkpt>
      <trkpt lat="44.19504" lon="4.27702">
        <ele>392</ele>
        <time>2023-05-18T13:27:25+02:00</time>
      </trkpt>
      <trkpt lat="44.19507" lon="4.27721">
        <ele>389</ele>
        <time>2023-05-18T13:27:39+02:00</time>
      </trkpt>
      <trkpt lat="44.19506" lon="4.27741">
        <ele>385</ele>
        <time>2023-05-18T13:27:58+02:00</time>
      </trkpt>
      <trkpt lat="44.19505" lon="4.2776">
        <ele>381</ele>
        <time>2023-05-18T13:28:21+02:00</time>
      </trkpt>
      <trkpt lat="44.19511" lon="4.27778">
        <ele>378</ele>
        <time>2023-05-18T13:28:37+02:00</time>
      </trkpt>
      <trkpt lat="44.19513" lon="4.278">
        <ele>375</ele>
        <time>2023-05-18T13:29:02+02:00</time>
      </trkpt>
      <trkpt lat="44.19501" lon="4.27808">
        <ele>374</ele>
        <time>2023-05-18T13:29:25+02:00</time>
      </trkpt>
      <trkpt lat="44.19492" lon="4.27822">
        <ele>376</ele>
        <time>2023-05-18T13:29:43+02:00</time>
      </trkpt>
      <trkpt lat="44.19488" lon="4.27844">
        <ele>375</ele>
        <time>2023-05-18T13:30:05+02:00</time>
      </trkpt>
      <trkpt lat="44.19481" lon="4.27861">
        <ele>375</ele>
        <time>2023-05-18T13:30:21+02:00</time>
      </trkpt>
      <trkpt lat="44.19478" lon="4.27883">
        <ele>376</ele>
        <time>2023-05-18T13:30:54+02:00</time>
      </trkpt>
      <trkpt lat="44.19474" lon="4.27903">
        <ele>377</ele>
        <time>2023-05-18T13:31:15+02:00</time>
      </trkpt>
      <trkpt lat="44.19478" lon="4.27923">
        <ele>377</ele>
        <time>2023-05-18T13:31:29+02:00</time>
      </trkpt>
      <trkpt lat="44.19473" lon="4.27942">
        <ele>377</ele>
        <time>2023-05-18T13:32:15+02:00</time>
      </trkpt>
      <trkpt lat="44.19481" lon="4.27958">
        <ele>378</ele>
        <time>2023-05-18T13:32:42+02:00</time>
      </trkpt>
      <trkpt lat="44.19485" lon="4.27978">
        <ele>377</ele>
        <time>2023-05-18T13:32:59+02:00</time>
      </trkpt>
      <trkpt lat="44.19491" lon="4.27994">
        <ele>378</ele>
        <time>2023-05-18T13:33:12+02:00</time>
      </trkpt>
      <trkpt lat="44.19494" lon="4.28014">
        <ele>379</ele>
        <time>2023-05-18T13:33:26+02:00</time>
      </trkpt>
      <trkpt lat="44.19488" lon="4.28033">
        <ele>382</ele>
        <time>2023-05-18T13:33:42+02:00</time>
      </trkpt>
      <trkpt lat="44.19486" lon="4.28054">
        <ele>384</ele>
        <time>2023-05-18T13:33:58+02:00</time>
      </trkpt>
      <trkpt lat="44.19482" lon="4.28076">
        <ele>386</ele>
        <time>2023-05-18T13:34:15+02:00</time>
      </trkpt>
      <trkpt lat="44.19488" lon="4.28094">
        <ele>387</ele>
        <time>2023-05-18T13:34:32+02:00</time>
      </trkpt>
      <trkpt lat="44.19489" lon="4.28115">
        <ele>387</ele>
        <time>2023-05-18T13:34:48+02:00</time>
      </trkpt>
      <trkpt lat="44.19492" lon="4.28135">
        <ele>386</ele>
        <time>2023-05-18T13:35:13+02:00</time>
      </trkpt>
      <trkpt lat="44.19494" lon="4.28156">
        <ele>384</ele>
        <time>2023-05-18T13:35:35+02:00</time>
      </trkpt>
      <trkpt lat="44.19492" lon="4.28174">
        <ele>384</ele>
        <time>2023-05-18T13:35:51+02:00</time>
      </trkpt>
      <trkpt lat="44.19491" lon="4.28193">
        <ele>384</ele>
        <time>2023-05-18T13:36:13+02:00</time>
      </trkpt>
      <trkpt lat="44.19492" lon="4.28212">
        <ele>384</ele>
        <time>2023-05-18T13:36:30+02:00</time>
      </trkpt>
      <trkpt lat="44.19493" lon="4.28234">
        <ele>385</ele>
        <time>2023-05-18T13:36:45+02:00</time>
      </trkpt>
      <trkpt lat="44.19496" lon="4.28214">
        <ele>384</ele>
        <time>2023-05-18T13:39:04+02:00</time>
      </trkpt>
      <trkpt lat="44.19495" lon="4.28194">
        <ele>385</ele>
        <time>2023-05-18T13:39:22+02:00</time>
      </trkpt>
      <trkpt lat="44.19491" lon="4.28212">
        <ele>385</ele>
        <time>2023-05-18T13:43:26+02:00</time>
      </trkpt>
      <trkpt lat="44.19493" lon="4.28231">
        <ele>385</ele>
        <time>2023-05-18T13:43:46+02:00</time>
      </trkpt>
      <trkpt lat="44.19494" lon="4.2825">
        <ele>385</ele>
        <time>2023-05-18T13:43:59+02:00</time>
      </trkpt>
      <trkpt lat="44.19496" lon="4.28271">
        <ele>387</ele>
        <time>2023-05-18T13:44:23+02:00</time>
      </trkpt>
      <trkpt lat="44.19495" lon="4.28291">
        <ele>387</ele>
        <time>2023-05-18T13:44:40+02:00</time>
      </trkpt>
      <trkpt lat="44.19499" lon="4.2831">
        <ele>387</ele>
        <time>2023-05-18T13:44:56+02:00</time>
      </trkpt>
      <trkpt lat="44.19504" lon="4.2833">
        <ele>387</ele>
        <time>2023-05-18T13:45:16+02:00</time>
      </trkpt>
      <trkpt lat="44.19505" lon="4.28351">
        <ele>387</ele>
        <time>2023-05-18T13:45:36+02:00</time>
      </trkpt>
      <trkpt lat="44.19507" lon="4.28371">
        <ele>387</ele>
        <time>2023-05-18T13:45:56+02:00</time>
      </trkpt>
      <trkpt lat="44.19509" lon="4.2839">
        <ele>388</ele>
        <time>2023-05-18T13:46:12+02:00</time>
      </trkpt>
      <trkpt lat="44.19521" lon="4.28405">
        <ele>387</ele>
        <time>2023-05-18T13:46:37+02:00</time>
      </trkpt>
      <trkpt lat="44.19514" lon="4.28423">
        <ele>386</ele>
        <time>2023-05-18T13:47:26+02:00</time>
      </trkpt>
      <trkpt lat="44.19505" lon="4.28437">
        <ele>383</ele>
        <time>2023-05-18T13:48:31+02:00</time>
      </trkpt>
      <trkpt lat="44.19493" lon="4.28447">
        <ele>378</ele>
        <time>2023-05-18T13:49:10+02:00</time>
      </trkpt>
      <trkpt lat="44.19487" lon="4.28466">
        <ele>375</ele>
        <time>2023-05-18T13:49:26+02:00</time>
      </trkpt>
      <trkpt lat="44.19484" lon="4.28488">
        <ele>372</ele>
        <time>2023-05-18T13:49:44+02:00</time>
      </trkpt>
      <trkpt lat="44.19478" lon="4.28508">
        <ele>370</ele>
        <time>2023-05-18T13:50:06+02:00</time>
      </trkpt>
      <trkpt lat="44.19474" lon="4.28526">
        <ele>368</ele>
        <time>2023-05-18T13:50:36+02:00</time>
      </trkpt>
      <trkpt lat="44.19468" lon="4.28547">
        <ele>366</ele>
        <time>2023-05-18T13:50:53+02:00</time>
      </trkpt>
      <trkpt lat="44.19473" lon="4.28566">
        <ele>366</ele>
        <time>2023-05-18T13:51:07+02:00</time>
      </trkpt>
      <trkpt lat="44.19457" lon="4.28563">
        <ele>359</ele>
        <time>2023-05-18T13:51:43+02:00</time>
      </trkpt>
      <trkpt lat="44.19444" lon="4.28575">
        <ele>356</ele>
        <time>2023-05-18T13:51:57+02:00</time>
      </trkpt>
      <trkpt lat="44.19434" lon="4.28592">
        <ele>353</ele>
        <time>2023-05-18T13:52:10+02:00</time>
      </trkpt>
      <trkpt lat="44.19423" lon="4.28607">
        <ele>351</ele>
        <time>2023-05-18T13:52:22+02:00</time>
      </trkpt>
      <trkpt lat="44.19415" lon="4.28625">
        <ele>350</ele>
        <time>2023-05-18T13:52:36+02:00</time>
      </trkpt>
      <trkpt lat="44.19413" lon="4.28645">
        <ele>349</ele>
        <time>2023-05-18T13:52:50+02:00</time>
      </trkpt>
      <trkpt lat="44.19413" lon="4.28664">
        <ele>349</ele>
        <time>2023-05-18T13:53:04+02:00</time>
      </trkpt>
      <trkpt lat="44.19416" lon="4.28685">
        <ele>347</ele>
        <time>2023-05-18T13:53:22+02:00</time>
      </trkpt>
      <trkpt lat="44.19415" lon="4.28706">
        <ele>346</ele>
        <time>2023-05-18T13:53:35+02:00</time>
      </trkpt>
      <trkpt lat="44.19402" lon="4.28704">
        <ele>343</ele>
        <time>2023-05-18T13:54:02+02:00</time>
      </trkpt>
      <trkpt lat="44.1939" lon="4.28692">
        <ele>342</ele>
        <time>2023-05-18T13:54:18+02:00</time>
      </trkpt>
      <trkpt lat="44.19384" lon="4.28672">
        <ele>342</ele>
        <time>2023-05-18T13:54:35+02:00</time>
      </trkpt>
      <trkpt lat="44.19369" lon="4.28666">
        <ele>341</ele>
        <time>2023-05-18T13:55:17+02:00</time>
      </trkpt>
      <trkpt lat="44.19366" lon="4.28648">
        <ele>340</ele>
        <time>2023-05-18T13:55:29+02:00</time>
      </trkpt>
      <trkpt lat="44.19366" lon="4.28628">
        <ele>341</ele>
        <time>2023-05-18T13:55:55+02:00</time>
      </trkpt>
      <trkpt lat="44.19364" lon="4.28608">
        <ele>341</ele>
        <time>2023-05-18T13:56:08+02:00</time>
      </trkpt>
      <trkpt lat="44.1936" lon="4.28586">
        <ele>341</ele>
        <time>2023-05-18T13:56:22+02:00</time>
      </trkpt>
      <trkpt lat="44.19352" lon="4.28567">
        <ele>341</ele>
        <time>2023-05-18T13:56:39+02:00</time>
      </trkpt>
      <trkpt lat="44.19341" lon="4.28554">
        <ele>340</ele>
        <time>2023-05-18T13:56:55+02:00</time>
      </trkpt>
      <trkpt lat="44.19331" lon="4.28539">
        <ele>338</ele>
        <time>2023-05-18T13:57:07+02:00</time>
      </trkpt>
      <trkpt lat="44.1932" lon="4.28522">
        <ele>337</ele>
        <time>2023-05-18T13:57:24+02:00</time>
      </trkpt>
      <trkpt lat="44.19311" lon="4.28504">
        <ele>336</ele>
        <time>2023-05-18T13:57:38+02:00</time>
      </trkpt>
      <trkpt lat="44.19301" lon="4.28488">
        <ele>335</ele>
        <time>2023-05-18T13:57:52+02:00</time>
      </trkpt>
      <trkpt lat="44.19291" lon="4.28475">
        <ele>335</ele>
        <time>2023-05-18T13:58:11+02:00</time>
      </trkpt>
      <trkpt lat="44.1928" lon="4.28462">
        <ele>335</ele>
        <time>2023-05-18T13:59:22+02:00</time>
      </trkpt>
      <trkpt lat="44.19272" lon="4.28445">
        <ele>336</ele>
        <time>2023-05-18T14:00:04+02:00</time>
      </trkpt>
      <trkpt lat="44.19263" lon="4.28427">
        <ele>337</ele>
        <time>2023-05-18T14:00:26+02:00</time>
      </trkpt>
      <trkpt lat="44.19252" lon="4.28415">
        <ele>336</ele>
        <time>2023-05-18T14:00:41+02:00</time>
      </trkpt>
      <trkpt lat="44.19249" lon="4.28394">
        <ele>336</ele>
        <time>2023-05-18T14:00:57+02:00</time>
      </trkpt>
      <trkpt lat="44.19238" lon="4.28381">
        <ele>335</ele>
        <time>2023-05-18T14:01:12+02:00</time>
      </trkpt>
      <trkpt lat="44.19225" lon="4.28373">
        <ele>334</ele>
        <time>2023-05-18T14:01:25+02:00</time>
      </trkpt>
      <trkpt lat="44.19217" lon="4.28353">
        <ele>333</ele>
        <time>2023-05-18T14:01:41+02:00</time>
      </trkpt>
      <trkpt lat="44.19213" lon="4.28335">
        <ele>334</ele>
        <time>2023-05-18T14:01:55+02:00</time>
      </trkpt>
      <trkpt lat="44.19205" lon="4.28319">
        <ele>335</ele>
        <time>2023-05-18T14:02:13+02:00</time>
      </trkpt>
      <trkpt lat="44.19201" lon="4.283">
        <ele>334</ele>
        <time>2023-05-18T14:02:26+02:00</time>
      </trkpt>
      <trkpt lat="44.19195" lon="4.28283">
        <ele>334</ele>
        <time>2023-05-18T14:02:39+02:00</time>
      </trkpt>
      <trkpt lat="44.19189" lon="4.28262">
        <ele>333</ele>
        <time>2023-05-18T14:02:56+02:00</time>
      </trkpt>
      <trkpt lat="44.1918" lon="4.28245">
        <ele>333</ele>
        <time>2023-05-18T14:03:13+02:00</time>
      </trkpt>
      <trkpt lat="44.19174" lon="4.28228">
        <ele>332</ele>
        <time>2023-05-18T14:03:49+02:00</time>
      </trkpt>
      <trkpt lat="44.19166" lon="4.28211">
        <ele>331</ele>
        <time>2023-05-18T14:04:25+02:00</time>
      </trkpt>
      <trkpt lat="44.19157" lon="4.28191">
        <ele>330</ele>
        <time>2023-05-18T14:04:40+02:00</time>
      </trkpt>
      <trkpt lat="44.19149" lon="4.28172">
        <ele>330</ele>
        <time>2023-05-18T14:04:55+02:00</time>
      </trkpt>
      <trkpt lat="44.19144" lon="4.28153">
        <ele>329</ele>
        <time>2023-05-18T14:05:20+02:00</time>
      </trkpt>
      <trkpt lat="44.19137" lon="4.28132">
        <ele>327</ele>
        <time>2023-05-18T14:05:33+02:00</time>
      </trkpt>
      <trkpt lat="44.1913" lon="4.28115">
        <ele>327</ele>
        <time>2023-05-18T14:05:47+02:00</time>
      </trkpt>
      <trkpt lat="44.19123" lon="4.28095">
        <ele>326</ele>
        <time>2023-05-18T14:05:58+02:00</time>
      </trkpt>
      <trkpt lat="44.19118" lon="4.28078">
        <ele>325</ele>
        <time>2023-05-18T14:06:10+02:00</time>
      </trkpt>
      <trkpt lat="44.19111" lon="4.2806">
        <ele>323</ele>
        <time>2023-05-18T14:06:22+02:00</time>
      </trkpt>
      <trkpt lat="44.191" lon="4.28043">
        <ele>323</ele>
        <time>2023-05-18T14:06:36+02:00</time>
      </trkpt>
      <trkpt lat="44.19089" lon="4.28027">
        <ele>321</ele>
        <time>2023-05-18T14:06:50+02:00</time>
      </trkpt>
      <trkpt lat="44.19083" lon="4.28009">
        <ele>320</ele>
        <time>2023-05-18T14:07:22+02:00</time>
      </trkpt>
      <trkpt lat="44.19082" lon="4.27987">
        <ele>320</ele>
        <time>2023-05-18T14:07:35+02:00</time>
      </trkpt>
      <trkpt lat="44.19084" lon="4.27966">
        <ele>318</ele>
        <time>2023-05-18T14:07:48+02:00</time>
      </trkpt>
      <trkpt lat="44.1908" lon="4.27943">
        <ele>317</ele>
        <time>2023-05-18T14:08:02+02:00</time>
      </trkpt>
      <trkpt lat="44.19073" lon="4.27926">
        <ele>316</ele>
        <time>2023-05-18T14:08:13+02:00</time>
      </trkpt>
      <trkpt lat="44.19063" lon="4.27913">
        <ele>315</ele>
        <time>2023-05-18T14:08:25+02:00</time>
      </trkpt>
      <trkpt lat="44.1905" lon="4.279">
        <ele>315</ele>
        <time>2023-05-18T14:08:39+02:00</time>
      </trkpt>
      <trkpt lat="44.19037" lon="4.27889">
        <ele>314</ele>
        <time>2023-05-18T14:08:54+02:00</time>
      </trkpt>
      <trkpt lat="44.19024" lon="4.27881">
        <ele>313</ele>
        <time>2023-05-18T14:09:06+02:00</time>
      </trkpt>
      <trkpt lat="44.19009" lon="4.27872">
        <ele>312</ele>
        <time>2023-05-18T14:09:21+02:00</time>
      </trkpt>
      <trkpt lat="44.18995" lon="4.27867">
        <ele>311</ele>
        <time>2023-05-18T14:09:34+02:00</time>
      </trkpt>
      <trkpt lat="44.1898" lon="4.27861">
        <ele>312</ele>
        <time>2023-05-18T14:09:48+02:00</time>
      </trkpt>
      <trkpt lat="44.18978" lon="4.27842">
        <ele>312</ele>
        <time>2023-05-18T14:10:04+02:00</time>
      </trkpt>
      <trkpt lat="44.18989" lon="4.27829">
        <ele>311</ele>
        <time>2023-05-18T14:10:21+02:00</time>
      </trkpt>
      <trkpt lat="44.19003" lon="4.27816">
        <ele>310</ele>
        <time>2023-05-18T14:10:35+02:00</time>
      </trkpt>
      <trkpt lat="44.19015" lon="4.27806">
        <ele>310</ele>
        <time>2023-05-18T14:10:48+02:00</time>
      </trkpt>
      <trkpt lat="44.19028" lon="4.27796">
        <ele>308</ele>
        <time>2023-05-18T14:11:01+02:00</time>
      </trkpt>
      <trkpt lat="44.19041" lon="4.27784">
        <ele>307</ele>
        <time>2023-05-18T14:11:14+02:00</time>
      </trkpt>
      <trkpt lat="44.19055" lon="4.27772">
        <ele>306</ele>
        <time>2023-05-18T14:11:29+02:00</time>
      </trkpt>
      <trkpt lat="44.19069" lon="4.2776">
        <ele>304</ele>
        <time>2023-05-18T14:11:43+02:00</time>
      </trkpt>
      <trkpt lat="44.19083" lon="4.27747">
        <ele>305</ele>
        <time>2023-05-18T14:11:57+02:00</time>
      </trkpt>
      <trkpt lat="44.19096" lon="4.27732">
        <ele>303</ele>
        <time>2023-05-18T14:12:11+02:00</time>
      </trkpt>
      <trkpt lat="44.19106" lon="4.27715">
        <ele>302</ele>
        <time>2023-05-18T14:12:24+02:00</time>
      </trkpt>
      <trkpt lat="44.19112" lon="4.27696">
        <ele>301</ele>
        <time>2023-05-18T14:12:38+02:00</time>
      </trkpt>
      <trkpt lat="44.19116" lon="4.27676">
        <ele>300</ele>
        <time>2023-05-18T14:12:52+02:00</time>
      </trkpt>
      <trkpt lat="44.19112" lon="4.27657">
        <ele>299</ele>
        <time>2023-05-18T14:13:05+02:00</time>
      </trkpt>
      <trkpt lat="44.19104" lon="4.27638">
        <ele>298</ele>
        <time>2023-05-18T14:13:18+02:00</time>
      </trkpt>
      <trkpt lat="44.19094" lon="4.27625">
        <ele>297</ele>
        <time>2023-05-18T14:13:32+02:00</time>
      </trkpt>
      <trkpt lat="44.1908" lon="4.27614">
        <ele>295</ele>
        <time>2023-05-18T14:13:52+02:00</time>
      </trkpt>
      <trkpt lat="44.19066" lon="4.27606">
        <ele>295</ele>
        <time>2023-05-18T14:14:06+02:00</time>
      </trkpt>
      <trkpt lat="44.19053" lon="4.27599">
        <ele>293</ele>
        <time>2023-05-18T14:14:20+02:00</time>
      </trkpt>
      <trkpt lat="44.1904" lon="4.27594">
        <ele>293</ele>
        <time>2023-05-18T14:14:32+02:00</time>
      </trkpt>
      <trkpt lat="44.19025" lon="4.27587">
        <ele>292</ele>
        <time>2023-05-18T14:14:47+02:00</time>
      </trkpt>
      <trkpt lat="44.19011" lon="4.27583">
        <ele>291</ele>
        <time>2023-05-18T14:15:01+02:00</time>
      </trkpt>
      <trkpt lat="44.18998" lon="4.27579">
        <ele>290</ele>
        <time>2023-05-18T14:15:14+02:00</time>
      </trkpt>
      <trkpt lat="44.18982" lon="4.27579">
        <ele>289</ele>
        <time>2023-05-18T14:15:46+02:00</time>
      </trkpt>
      <trkpt lat="44.18969" lon="4.2757">
        <ele>288</ele>
        <time>2023-05-18T14:15:59+02:00</time>
      </trkpt>
      <trkpt lat="44.18967" lon="4.27549">
        <ele>287</ele>
        <time>2023-05-18T14:16:12+02:00</time>
      </trkpt>
      <trkpt lat="44.18957" lon="4.27532">
        <ele>286</ele>
        <time>2023-05-18T14:16:26+02:00</time>
      </trkpt>
      <trkpt lat="44.18948" lon="4.27518">
        <ele>286</ele>
        <time>2023-05-18T14:16:40+02:00</time>
      </trkpt>
      <trkpt lat="44.1894" lon="4.27503">
        <ele>285</ele>
        <time>2023-05-18T14:16:51+02:00</time>
      </trkpt>
      <trkpt lat="44.18929" lon="4.27489">
        <ele>284</ele>
        <time>2023-05-18T14:17:05+02:00</time>
      </trkpt>
      <trkpt lat="44.18922" lon="4.2747">
        <ele>283</ele>
        <time>2023-05-18T14:17:20+02:00</time>
      </trkpt>
      <trkpt lat="44.18936" lon="4.27462">
        <ele>283</ele>
        <time>2023-05-18T14:17:37+02:00</time>
      </trkpt>
      <trkpt lat="44.1895" lon="4.27467">
        <ele>283</ele>
        <time>2023-05-18T14:17:50+02:00</time>
      </trkpt>
      <trkpt lat="44.18963" lon="4.27468">
        <ele>283</ele>
        <time>2023-05-18T14:18:04+02:00</time>
      </trkpt>
      <trkpt lat="44.18978" lon="4.27466">
        <ele>281</ele>
        <time>2023-05-18T14:18:17+02:00</time>
      </trkpt>
      <trkpt lat="44.18992" lon="4.27467">
        <ele>280</ele>
        <time>2023-05-18T14:18:30+02:00</time>
      </trkpt>
      <trkpt lat="44.19007" lon="4.2747">
        <ele>280</ele>
        <time>2023-05-18T14:18:44+02:00</time>
      </trkpt>
      <trkpt lat="44.19022" lon="4.27468">
        <ele>278</ele>
        <time>2023-05-18T14:18:57+02:00</time>
      </trkpt>
      <trkpt lat="44.19039" lon="4.27465">
        <ele>276</ele>
        <time>2023-05-18T14:19:18+02:00</time>
      </trkpt>
      <trkpt lat="44.19053" lon="4.27462">
        <ele>276</ele>
        <time>2023-05-18T14:19:30+02:00</time>
      </trkpt>
      <trkpt lat="44.19068" lon="4.27456">
        <ele>275</ele>
        <time>2023-05-18T14:19:43+02:00</time>
      </trkpt>
      <trkpt lat="44.19083" lon="4.27451">
        <ele>274</ele>
        <time>2023-05-18T14:19:57+02:00</time>
      </trkpt>
      <trkpt lat="44.19098" lon="4.27449">
        <ele>274</ele>
        <time>2023-05-18T14:20:12+02:00</time>
      </trkpt>
      <trkpt lat="44.19113" lon="4.27446">
        <ele>273</ele>
        <time>2023-05-18T14:20:26+02:00</time>
      </trkpt>
      <trkpt lat="44.19128" lon="4.27442">
        <ele>272</ele>
        <time>2023-05-18T14:20:39+02:00</time>
      </trkpt>
      <trkpt lat="44.19144" lon="4.2744">
        <ele>272</ele>
        <time>2023-05-18T14:20:52+02:00</time>
      </trkpt>
      <trkpt lat="44.19159" lon="4.27435">
        <ele>271</ele>
        <time>2023-05-18T14:21:07+02:00</time>
      </trkpt>
      <trkpt lat="44.19173" lon="4.27428">
        <ele>271</ele>
        <time>2023-05-18T14:21:20+02:00</time>
      </trkpt>
      <trkpt lat="44.19181" lon="4.27413">
        <ele>270</ele>
        <time>2023-05-18T14:21:31+02:00</time>
      </trkpt>
      <trkpt lat="44.19186" lon="4.27394">
        <ele>269</ele>
        <time>2023-05-18T14:21:42+02:00</time>
      </trkpt>
      <trkpt lat="44.19191" lon="4.27374">
        <ele>268</ele>
        <time>2023-05-18T14:21:57+02:00</time>
      </trkpt>
      <trkpt lat="44.19191" lon="4.27354">
        <ele>266</ele>
        <time>2023-05-18T14:22:11+02:00</time>
      </trkpt>
      <trkpt lat="44.19195" lon="4.27334">
        <ele>265</ele>
        <time>2023-05-18T14:22:25+02:00</time>
      </trkpt>
      <trkpt lat="44.19197" lon="4.27312">
        <ele>263</ele>
        <time>2023-05-18T14:22:40+02:00</time>
      </trkpt>
      <trkpt lat="44.19198" lon="4.2729">
        <ele>263</ele>
        <time>2023-05-18T14:22:54+02:00</time>
      </trkpt>
      <trkpt lat="44.19194" lon="4.27269">
        <ele>261</ele>
        <time>2023-05-18T14:23:11+02:00</time>
      </trkpt>
      <trkpt lat="44.19201" lon="4.27247">
        <ele>260</ele>
        <time>2023-05-18T14:23:27+02:00</time>
      </trkpt>
      <trkpt lat="44.19201" lon="4.27225">
        <ele>258</ele>
        <time>2023-05-18T14:23:41+02:00</time>
      </trkpt>
      <trkpt lat="44.19204" lon="4.27206">
        <ele>258</ele>
        <time>2023-05-18T14:23:54+02:00</time>
      </trkpt>
      <trkpt lat="44.19204" lon="4.27186">
        <ele>257</ele>
        <time>2023-05-18T14:24:08+02:00</time>
      </trkpt>
      <trkpt lat="44.19204" lon="4.27166">
        <ele>257</ele>
        <time>2023-05-18T14:24:21+02:00</time>
      </trkpt>
      <trkpt lat="44.19194" lon="4.27152">
        <ele>257</ele>
        <time>2023-05-18T14:24:35+02:00</time>
      </trkpt>
      <trkpt lat="44.1918" lon="4.27152">
        <ele>256</ele>
        <time>2023-05-18T14:24:47+02:00</time>
      </trkpt>
      <trkpt lat="44.19165" lon="4.27148">
        <ele>255</ele>
        <time>2023-05-18T14:25:01+02:00</time>
      </trkpt>
      <trkpt lat="44.19159" lon="4.2713">
        <ele>255</ele>
        <time>2023-05-18T14:25:15+02:00</time>
      </trkpt>
      <trkpt lat="44.1916" lon="4.2711">
        <ele>254</ele>
        <time>2023-05-18T14:25:28+02:00</time>
      </trkpt>
      <trkpt lat="44.1916" lon="4.27088">
        <ele>254</ele>
        <time>2023-05-18T14:25:44+02:00</time>
      </trkpt>
      <trkpt lat="44.19154" lon="4.27068">
        <ele>253</ele>
        <time>2023-05-18T14:25:58+02:00</time>
      </trkpt>
      <trkpt lat="44.19153" lon="4.27045">
        <ele>253</ele>
        <time>2023-05-18T14:26:17+02:00</time>
      </trkpt>
      <trkpt lat="44.19147" lon="4.27026">
        <ele>252</ele>
        <time>2023-05-18T14:26:31+02:00</time>
      </trkpt>
      <trkpt lat="44.19143" lon="4.27007">
        <ele>251</ele>
        <time>2023-05-18T14:26:46+02:00</time>
      </trkpt>
      <trkpt lat="44.19149" lon="4.26989">
        <ele>250</ele>
        <time>2023-05-18T14:27:30+02:00</time>
      </trkpt>
      <trkpt lat="44.19157" lon="4.2697">
        <ele>249</ele>
        <time>2023-05-18T14:27:44+02:00</time>
      </trkpt>
      <trkpt lat="44.19164" lon="4.26954">
        <ele>249</ele>
        <time>2023-05-18T14:27:54+02:00</time>
      </trkpt>
      <trkpt lat="44.19168" lon="4.26933">
        <ele>248</ele>
        <time>2023-05-18T14:28:08+02:00</time>
      </trkpt>
      <trkpt lat="44.19168" lon="4.26913">
        <ele>247</ele>
        <time>2023-05-18T14:28:21+02:00</time>
      </trkpt>
      <trkpt lat="44.19166" lon="4.26891">
        <ele>246</ele>
        <time>2023-05-18T14:28:34+02:00</time>
      </trkpt>
      <trkpt lat="44.19161" lon="4.26871">
        <ele>246</ele>
        <time>2023-05-18T14:28:47+02:00</time>
      </trkpt>
      <trkpt lat="44.19157" lon="4.26852">
        <ele>245</ele>
        <time>2023-05-18T14:29:00+02:00</time>
      </trkpt>
      <trkpt lat="44.19154" lon="4.26831">
        <ele>243</ele>
        <time>2023-05-18T14:29:14+02:00</time>
      </trkpt>
      <trkpt lat="44.19151" lon="4.26813">
        <ele>243</ele>
        <time>2023-05-18T14:29:27+02:00</time>
      </trkpt>
      <trkpt lat="44.19144" lon="4.26796">
        <ele>242</ele>
        <time>2023-05-18T14:29:40+02:00</time>
      </trkpt>
      <trkpt lat="44.19132" lon="4.2678">
        <ele>241</ele>
        <time>2023-05-18T14:29:57+02:00</time>
      </trkpt>
      <trkpt lat="44.19121" lon="4.2677">
        <ele>240</ele>
        <time>2023-05-18T14:30:10+02:00</time>
      </trkpt>
      <trkpt lat="44.19107" lon="4.26764">
        <ele>240</ele>
        <time>2023-05-18T14:30:24+02:00</time>
      </trkpt>
      <trkpt lat="44.19092" lon="4.2676">
        <ele>238</ele>
        <time>2023-05-18T14:30:38+02:00</time>
      </trkpt>
      <trkpt lat="44.19088" lon="4.26742">
        <ele>238</ele>
        <time>2023-05-18T14:30:51+02:00</time>
      </trkpt>
      <trkpt lat="44.19098" lon="4.2673">
        <ele>237</ele>
        <time>2023-05-18T14:31:06+02:00</time>
      </trkpt>
      <trkpt lat="44.19111" lon="4.26718">
        <ele>237</ele>
        <time>2023-05-18T14:31:22+02:00</time>
      </trkpt>
      <trkpt lat="44.19126" lon="4.26711">
        <ele>236</ele>
        <time>2023-05-18T14:31:48+02:00</time>
      </trkpt>
      <trkpt lat="44.1914" lon="4.26702">
        <ele>235</ele>
        <time>2023-05-18T14:32:02+02:00</time>
      </trkpt>
      <trkpt lat="44.19154" lon="4.26693">
        <ele>234</ele>
        <time>2023-05-18T14:32:18+02:00</time>
      </trkpt>
      <trkpt lat="44.19167" lon="4.26679">
        <ele>233</ele>
        <time>2023-05-18T14:32:47+02:00</time>
      </trkpt>
      <trkpt lat="44.19174" lon="4.26661">
        <ele>231</ele>
        <time>2023-05-18T14:32:57+02:00</time>
      </trkpt>
      <trkpt lat="44.19177" lon="4.26643">
        <ele>229</ele>
        <time>2023-05-18T14:33:08+02:00</time>
      </trkpt>
      <trkpt lat="44.19177" lon="4.26623">
        <ele>228</ele>
        <time>2023-05-18T14:33:22+02:00</time>
      </trkpt>
      <trkpt lat="44.19178" lon="4.26602">
        <ele>227</ele>
        <time>2023-05-18T14:33:42+02:00</time>
      </trkpt>
      <trkpt lat="44.19178" lon="4.26582">
        <ele>226</ele>
        <time>2023-05-18T14:33:53+02:00</time>
      </trkpt>
      <trkpt lat="44.19181" lon="4.26562">
        <ele>224</ele>
        <time>2023-05-18T14:34:07+02:00</time>
      </trkpt>
      <trkpt lat="44.19183" lon="4.26541">
        <ele>223</ele>
        <time>2023-05-18T14:34:20+02:00</time>
      </trkpt>
      <trkpt lat="44.19178" lon="4.26518">
        <ele>222</ele>
        <time>2023-05-18T14:34:34+02:00</time>
      </trkpt>
      <trkpt lat="44.19172" lon="4.26501">
        <ele>221</ele>
        <time>2023-05-18T14:34:47+02:00</time>
      </trkpt>
      <trkpt lat="44.19165" lon="4.26484">
        <ele>221</ele>
        <time>2023-05-18T14:35:00+02:00</time>
      </trkpt>
      <trkpt lat="44.19165" lon="4.26464">
        <ele>220</ele>
        <time>2023-05-18T14:35:14+02:00</time>
      </trkpt>
      <trkpt lat="44.19164" lon="4.26444">
        <ele>220</ele>
        <time>2023-05-18T14:35:30+02:00</time>
      </trkpt>
      <trkpt lat="44.19168" lon="4.26422">
        <ele>219</ele>
        <time>2023-05-18T14:35:53+02:00</time>
      </trkpt>
      <trkpt lat="44.19171" lon="4.26403">
        <ele>218</ele>
        <time>2023-05-18T14:36:04+02:00</time>
      </trkpt>
      <trkpt lat="44.19172" lon="4.26381">
        <ele>217</ele>
        <time>2023-05-18T14:36:19+02:00</time>
      </trkpt>
      <trkpt lat="44.19171" lon="4.26362">
        <ele>216</ele>
        <time>2023-05-18T14:36:32+02:00</time>
      </trkpt>
      <trkpt lat="44.1917" lon="4.26342">
        <ele>216</ele>
        <time>2023-05-18T14:36:45+02:00</time>
      </trkpt>
      <trkpt lat="44.19168" lon="4.26323">
        <ele>215</ele>
        <time>2023-05-18T14:36:58+02:00</time>
      </trkpt>
      <trkpt lat="44.19161" lon="4.26303">
        <ele>214</ele>
        <time>2023-05-18T14:37:12+02:00</time>
      </trkpt>
      <trkpt lat="44.19155" lon="4.26283">
        <ele>213</ele>
        <time>2023-05-18T14:37:27+02:00</time>
      </trkpt>
      <trkpt lat="44.1915" lon="4.26262">
        <ele>212</ele>
        <time>2023-05-18T14:37:41+02:00</time>
      </trkpt>
      <trkpt lat="44.19144" lon="4.26242">
        <ele>211</ele>
        <time>2023-05-18T14:37:56+02:00</time>
      </trkpt>
      <trkpt lat="44.19139" lon="4.26222">
        <ele>210</ele>
        <time>2023-05-18T14:38:09+02:00</time>
      </trkpt>
      <trkpt lat="44.19135" lon="4.26204">
        <ele>209</ele>
        <time>2023-05-18T14:38:21+02:00</time>
      </trkpt>
      <trkpt lat="44.19132" lon="4.26184">
        <ele>208</ele>
        <time>2023-05-18T14:38:35+02:00</time>
      </trkpt>
      <trkpt lat="44.19131" lon="4.26162">
        <ele>206</ele>
        <time>2023-05-18T14:38:49+02:00</time>
      </trkpt>
      <trkpt lat="44.1913" lon="4.26141">
        <ele>205</ele>
        <time>2023-05-18T14:39:02+02:00</time>
      </trkpt>
      <trkpt lat="44.19127" lon="4.26118">
        <ele>204</ele>
        <time>2023-05-18T14:39:17+02:00</time>
      </trkpt>
      <trkpt lat="44.19122" lon="4.26097">
        <ele>203</ele>
        <time>2023-05-18T14:39:34+02:00</time>
      </trkpt>
      <trkpt lat="44.1911" lon="4.26087">
        <ele>202</ele>
        <time>2023-05-18T14:40:26+02:00</time>
      </trkpt>
      <trkpt lat="44.19102" lon="4.26069">
        <ele>202</ele>
        <time>2023-05-18T14:40:39+02:00</time>
      </trkpt>
      <trkpt lat="44.19097" lon="4.2605">
        <ele>201</ele>
        <time>2023-05-18T14:40:53+02:00</time>
      </trkpt>
      <trkpt lat="44.19103" lon="4.26031">
        <ele>201</ele>
        <time>2023-05-18T14:41:08+02:00</time>
      </trkpt>
      <trkpt lat="44.19109" lon="4.26014">
        <ele>201</ele>
        <time>2023-05-18T14:41:19+02:00</time>
      </trkpt>
      <trkpt lat="44.19118" lon="4.25995">
        <ele>200</ele>
        <time>2023-05-18T14:41:33+02:00</time>
      </trkpt>
      <trkpt lat="44.19124" lon="4.25975">
        <ele>200</ele>
        <time>2023-05-18T14:41:47+02:00</time>
      </trkpt>
      <trkpt lat="44.19127" lon="4.25956">
        <ele>200</ele>
        <time>2023-05-18T14:41:59+02:00</time>
      </trkpt>
      <trkpt lat="44.19131" lon="4.25938">
        <ele>200</ele>
        <time>2023-05-18T14:42:11+02:00</time>
      </trkpt>
      <trkpt lat="44.19135" lon="4.25915">
        <ele>199</ele>
        <time>2023-05-18T14:42:26+02:00</time>
      </trkpt>
      <trkpt lat="44.19138" lon="4.25895">
        <ele>199</ele>
        <time>2023-05-18T14:42:40+02:00</time>
      </trkpt>
      <trkpt lat="44.19145" lon="4.25877">
        <ele>199</ele>
        <time>2023-05-18T14:42:53+02:00</time>
      </trkpt>
      <trkpt lat="44.19151" lon="4.25859">
        <ele>199</ele>
        <time>2023-05-18T14:43:05+02:00</time>
      </trkpt>
      <trkpt lat="44.19153" lon="4.2584">
        <ele>199</ele>
        <time>2023-05-18T14:43:19+02:00</time>
      </trkpt>
      <trkpt lat="44.19158" lon="4.25821">
        <ele>198</ele>
        <time>2023-05-18T14:43:32+02:00</time>
      </trkpt>
      <trkpt lat="44.19164" lon="4.25801">
        <ele>198</ele>
        <time>2023-05-18T14:43:46+02:00</time>
      </trkpt>
      <trkpt lat="44.19171" lon="4.2578">
        <ele>198</ele>
        <time>2023-05-18T14:44:02+02:00</time>
      </trkpt>
      <trkpt lat="44.19177" lon="4.25759">
        <ele>198</ele>
        <time>2023-05-18T14:44:43+02:00</time>
      </trkpt>
      <trkpt lat="44.19181" lon="4.2574">
        <ele>198</ele>
        <time>2023-05-18T14:44:53+02:00</time>
      </trkpt>
      <trkpt lat="44.19188" lon="4.25721">
        <ele>198</ele>
        <time>2023-05-18T14:45:07+02:00</time>
      </trkpt>
      <trkpt lat="44.19193" lon="4.25704">
        <ele>197</ele>
        <time>2023-05-18T14:45:31+02:00</time>
      </trkpt>
      <trkpt lat="44.19203" lon="4.25689">
        <ele>198</ele>
        <time>2023-05-18T14:45:45+02:00</time>
      </trkpt>
      <trkpt lat="44.19213" lon="4.25676">
        <ele>198</ele>
        <time>2023-05-18T14:45:59+02:00</time>
      </trkpt>
      <trkpt lat="44.19227" lon="4.25665">
        <ele>198</ele>
        <time>2023-05-18T14:46:15+02:00</time>
      </trkpt>
      <trkpt lat="44.19241" lon="4.25657">
        <ele>198</ele>
        <time>2023-05-18T14:46:28+02:00</time>
      </trkpt>
      <trkpt lat="44.19253" lon="4.25642">
        <ele>198</ele>
        <time>2023-05-18T14:46:42+02:00</time>
      </trkpt>
      <trkpt lat="44.19255" lon="4.25623">
        <ele>198</ele>
        <time>2023-05-18T14:46:53+02:00</time>
      </trkpt>
      <trkpt lat="44.1926" lon="4.25602">
        <ele>198</ele>
        <time>2023-05-18T14:47:10+02:00</time>
      </trkpt>
      <trkpt lat="44.19269" lon="4.25587">
        <ele>197</ele>
        <time>2023-05-18T14:48:14+02:00</time>
      </trkpt>
      <trkpt lat="44.19281" lon="4.25572">
        <ele>197</ele>
        <time>2023-05-18T14:48:28+02:00</time>
      </trkpt>
      <trkpt lat="44.19295" lon="4.2556">
        <ele>196</ele>
        <time>2023-05-18T14:48:41+02:00</time>
      </trkpt>
      <trkpt lat="44.19308" lon="4.25547">
        <ele>195</ele>
        <time>2023-05-18T14:48:55+02:00</time>
      </trkpt>
      <trkpt lat="44.19319" lon="4.25536">
        <ele>195</ele>
        <time>2023-05-18T14:49:06+02:00</time>
      </trkpt>
      <trkpt lat="44.19331" lon="4.25526">
        <ele>195</ele>
        <time>2023-05-18T14:49:19+02:00</time>
      </trkpt>
      <trkpt lat="44.19344" lon="4.25521">
        <ele>195</ele>
        <time>2023-05-18T14:49:33+02:00</time>
      </trkpt>
      <trkpt lat="44.19356" lon="4.25509">
        <ele>194</ele>
        <time>2023-05-18T14:50:20+02:00</time>
      </trkpt>
      <trkpt lat="44.19372" lon="4.25502">
        <ele>194</ele>
        <time>2023-05-18T14:50:34+02:00</time>
      </trkpt>
      <trkpt lat="44.19387" lon="4.25496">
        <ele>193</ele>
        <time>2023-05-18T14:50:47+02:00</time>
      </trkpt>
      <trkpt lat="44.19402" lon="4.2549">
        <ele>193</ele>
        <time>2023-05-18T14:51:09+02:00</time>
      </trkpt>
      <trkpt lat="44.19417" lon="4.25493">
        <ele>193</ele>
        <time>2023-05-18T14:51:25+02:00</time>
      </trkpt>
      <trkpt lat="44.19432" lon="4.2549">
        <ele>192</ele>
        <time>2023-05-18T14:51:45+02:00</time>
      </trkpt>
      <trkpt lat="44.19447" lon="4.25488">
        <ele>192</ele>
        <time>2023-05-18T14:52:02+02:00</time>
      </trkpt>
      <trkpt lat="44.19462" lon="4.25482">
        <ele>193</ele>
        <time>2023-05-18T14:52:16+02:00</time>
      </trkpt>
      <trkpt lat="44.19476" lon="4.25478">
        <ele>192</ele>
        <time>2023-05-18T14:52:30+02:00</time>
      </trkpt>
      <trkpt lat="44.19489" lon="4.25471">
        <ele>192</ele>
        <time>2023-05-18T14:52:42+02:00</time>
      </trkpt>
      <trkpt lat="44.19505" lon="4.25469">
        <ele>192</ele>
        <time>2023-05-18T14:52:56+02:00</time>
      </trkpt>
      <trkpt lat="44.1952" lon="4.25457">
        <ele>191</ele>
        <time>2023-05-18T14:53:10+02:00</time>
      </trkpt>
      <trkpt lat="44.19533" lon="4.25448">
        <ele>192</ele>
        <time>2023-05-18T14:53:23+02:00</time>
      </trkpt>
      <trkpt lat="44.19545" lon="4.25434">
        <ele>192</ele>
        <time>2023-05-18T14:53:38+02:00</time>
      </trkpt>
      <trkpt lat="44.19556" lon="4.25418">
        <ele>193</ele>
        <time>2023-05-18T14:53:52+02:00</time>
      </trkpt>
      <trkpt lat="44.19565" lon="4.25402">
        <ele>192</ele>
        <time>2023-05-18T14:54:06+02:00</time>
      </trkpt>
      <trkpt lat="44.19575" lon="4.25388">
        <ele>192</ele>
        <time>2023-05-18T14:54:19+02:00</time>
      </trkpt>
      <trkpt lat="44.1958" lon="4.2537">
        <ele>191</ele>
        <time>2023-05-18T14:54:32+02:00</time>
      </trkpt>
      <trkpt lat="44.19586" lon="4.25351">
        <ele>190</ele>
        <time>2023-05-18T14:54:48+02:00</time>
      </trkpt>
      <trkpt lat="44.19598" lon="4.25337">
        <ele>190</ele>
        <time>2023-05-18T14:55:17+02:00</time>
      </trkpt>
      <trkpt lat="44.19607" lon="4.25322">
        <ele>189</ele>
        <time>2023-05-18T14:55:31+02:00</time>
      </trkpt>
      <trkpt lat="44.19616" lon="4.25307">
        <ele>189</ele>
        <time>2023-05-18T14:55:44+02:00</time>
      </trkpt>
      <trkpt lat="44.19622" lon="4.2529">
        <ele>189</ele>
        <time>2023-05-18T14:55:58+02:00</time>
      </trkpt>
      <trkpt lat="44.19629" lon="4.25272">
        <ele>189</ele>
        <time>2023-05-18T14:56:12+02:00</time>
      </trkpt>
      <trkpt lat="44.19633" lon="4.25252">
        <ele>188</ele>
        <time>2023-05-18T14:56:27+02:00</time>
      </trkpt>
      <trkpt lat="44.19635" lon="4.2523">
        <ele>189</ele>
        <time>2023-05-18T14:56:45+02:00</time>
      </trkpt>
      <trkpt lat="44.19641" lon="4.25213">
        <ele>188</ele>
        <time>2023-05-18T14:57:01+02:00</time>
      </trkpt>
      <trkpt lat="44.19652" lon="4.25195">
        <ele>188</ele>
        <time>2023-05-18T14:57:40+02:00</time>
      </trkpt>
      <trkpt lat="44.19657" lon="4.25176">
        <ele>187</ele>
        <time>2023-05-18T14:57:50+02:00</time>
      </trkpt>
      <trkpt lat="44.19662" lon="4.25156">
        <ele>187</ele>
        <time>2023-05-18T14:58:04+02:00</time>
      </trkpt>
      <trkpt lat="44.19675" lon="4.25143">
        <ele>185</ele>
        <time>2023-05-18T14:58:27+02:00</time>
      </trkpt>
      <trkpt lat="44.19689" lon="4.2514">
        <ele>186</ele>
        <time>2023-05-18T14:59:18+02:00</time>
      </trkpt>
      <trkpt lat="44.197" lon="4.25131">
        <ele>186</ele>
        <time>2023-05-18T14:59:44+02:00</time>
      </trkpt>
      <trkpt lat="44.19714" lon="4.25124">
        <ele>186</ele>
        <time>2023-05-18T14:59:54+02:00</time>
      </trkpt>
      <trkpt lat="44.19725" lon="4.25113">
        <ele>185</ele>
        <time>2023-05-18T15:00:05+02:00</time>
      </trkpt>
      <trkpt lat="44.19733" lon="4.25095">
        <ele>185</ele>
        <time>2023-05-18T15:00:18+02:00</time>
      </trkpt>
      <trkpt lat="44.19749" lon="4.25088">
        <ele>185</ele>
        <time>2023-05-18T15:00:34+02:00</time>
      </trkpt>
      <trkpt lat="44.19765" lon="4.25086">
        <ele>185</ele>
        <time>2023-05-18T15:00:51+02:00</time>
      </trkpt>
      <trkpt lat="44.19781" lon="4.2508">
        <ele>185</ele>
        <time>2023-05-18T15:01:37+02:00</time>
      </trkpt>
      <trkpt lat="44.19794" lon="4.25065">
        <ele>184</ele>
        <time>2023-05-18T15:01:48+02:00</time>
      </trkpt>
      <trkpt lat="44.19803" lon="4.25047">
        <ele>183</ele>
        <time>2023-05-18T15:02:02+02:00</time>
      </trkpt>
      <trkpt lat="44.19814" lon="4.25032">
        <ele>183</ele>
        <time>2023-05-18T15:02:15+02:00</time>
      </trkpt>
      <trkpt lat="44.19824" lon="4.25015">
        <ele>183</ele>
        <time>2023-05-18T15:02:28+02:00</time>
      </trkpt>
      <trkpt lat="44.19831" lon="4.24997">
        <ele>182</ele>
        <time>2023-05-18T15:02:41+02:00</time>
      </trkpt>
      <trkpt lat="44.19836" lon="4.24978">
        <ele>182</ele>
        <time>2023-05-18T15:02:54+02:00</time>
      </trkpt>
      <trkpt lat="44.19841" lon="4.24957">
        <ele>181</ele>
        <time>2023-05-18T15:03:08+02:00</time>
      </trkpt>
      <trkpt lat="44.19846" lon="4.24936">
        <ele>181</ele>
        <time>2023-05-18T15:03:22+02:00</time>
      </trkpt>
      <trkpt lat="44.19853" lon="4.24919">
        <ele>181</ele>
        <time>2023-05-18T15:03:35+02:00</time>
      </trkpt>
      <trkpt lat="44.19858" lon="4.24901">
        <ele>181</ele>
        <time>2023-05-18T15:03:49+02:00</time>
      </trkpt>
      <trkpt lat="44.19865" lon="4.24883">
        <ele>181</ele>
        <time>2023-05-18T15:04:03+02:00</time>
      </trkpt>
      <trkpt lat="44.19875" lon="4.24865">
        <ele>181</ele>
        <time>2023-05-18T15:04:20+02:00</time>
      </trkpt>
      <trkpt lat="44.19884" lon="4.24852">
        <ele>180</ele>
        <time>2023-05-18T15:04:33+02:00</time>
      </trkpt>
      <trkpt lat="44.19895" lon="4.24839">
        <ele>180</ele>
        <time>2023-05-18T15:04:46+02:00</time>
      </trkpt>
      <trkpt lat="44.19905" lon="4.24824">
        <ele>180</ele>
        <time>2023-05-18T15:05:00+02:00</time>
      </trkpt>
      <trkpt lat="44.19914" lon="4.24806">
        <ele>180</ele>
        <time>2023-05-18T15:05:17+02:00</time>
      </trkpt>
      <trkpt lat="44.19925" lon="4.24791">
        <ele>180</ele>
        <time>2023-05-18T15:05:31+02:00</time>
      </trkpt>
      <trkpt lat="44.19931" lon="4.24771">
        <ele>180</ele>
        <time>2023-05-18T15:05:48+02:00</time>
      </trkpt>
      <trkpt lat="44.19933" lon="4.24749">
        <ele>180</ele>
        <time>2023-05-18T15:06:01+02:00</time>
      </trkpt>
      <trkpt lat="44.19933" lon="4.24728">
        <ele>179</ele>
        <time>2023-05-18T15:06:15+02:00</time>
      </trkpt>
      <trkpt lat="44.19932" lon="4.24709">
        <ele>179</ele>
        <time>2023-05-18T15:06:40+02:00</time>
      </trkpt>
      <trkpt lat="44.19931" lon="4.24688">
        <ele>180</ele>
        <time>2023-05-18T15:06:54+02:00</time>
      </trkpt>
      <trkpt lat="44.1993" lon="4.24668">
        <ele>180</ele>
        <time>2023-05-18T15:07:21+02:00</time>
      </trkpt>
      <trkpt lat="44.19932" lon="4.24648">
        <ele>180</ele>
        <time>2023-05-18T15:07:32+02:00</time>
      </trkpt>
      <trkpt lat="44.19935" lon="4.24626">
        <ele>180</ele>
        <time>2023-05-18T15:07:46+02:00</time>
      </trkpt>
      <trkpt lat="44.19936" lon="4.24603">
        <ele>180</ele>
        <time>2023-05-18T15:08:00+02:00</time>
      </trkpt>
      <trkpt lat="44.19938" lon="4.24583">
        <ele>180</ele>
        <time>2023-05-18T15:08:31+02:00</time>
      </trkpt>
      <trkpt lat="44.19938" lon="4.24564">
        <ele>180</ele>
        <time>2023-05-18T15:08:42+02:00</time>
      </trkpt>
      <trkpt lat="44.19931" lon="4.24548">
        <ele>180</ele>
        <time>2023-05-18T15:08:57+02:00</time>
      </trkpt>
      <trkpt lat="44.19918" lon="4.2454">
        <ele>180</ele>
        <time>2023-05-18T15:09:08+02:00</time>
      </trkpt>
      <trkpt lat="44.19907" lon="4.24525">
        <ele>180</ele>
        <time>2023-05-18T15:09:21+02:00</time>
      </trkpt>
      <trkpt lat="44.19892" lon="4.24517">
        <ele>180</ele>
        <time>2023-05-18T15:09:35+02:00</time>
      </trkpt>
      <trkpt lat="44.19879" lon="4.24512">
        <ele>179</ele>
        <time>2023-05-18T15:09:46+02:00</time>
      </trkpt>
      <trkpt lat="44.19867" lon="4.245">
        <ele>179</ele>
        <time>2023-05-18T15:10:00+02:00</time>
      </trkpt>
      <trkpt lat="44.19856" lon="4.24488">
        <ele>179</ele>
        <time>2023-05-18T15:10:12+02:00</time>
      </trkpt>
      <trkpt lat="44.19843" lon="4.24479">
        <ele>179</ele>
        <time>2023-05-18T15:10:23+02:00</time>
      </trkpt>
      <trkpt lat="44.19833" lon="4.24465">
        <ele>179</ele>
        <time>2023-05-18T15:10:36+02:00</time>
      </trkpt>
      <trkpt lat="44.19819" lon="4.24479">
        <ele>179</ele>
        <time>2023-05-18T15:10:59+02:00</time>
      </trkpt>
      <trkpt lat="44.19808" lon="4.24494">
        <ele>179</ele>
        <time>2023-05-18T15:11:26+02:00</time>
      </trkpt>
      <trkpt lat="44.19793" lon="4.24499">
        <ele>180</ele>
        <time>2023-05-18T15:11:40+02:00</time>
      </trkpt>
      <trkpt lat="44.19776" lon="4.24493">
        <ele>179</ele>
        <time>2023-05-18T15:11:52+02:00</time>
      </trkpt>
      <trkpt lat="44.19762" lon="4.24488">
        <ele>179</ele>
        <time>2023-05-18T15:12:02+02:00</time>
      </trkpt>
      <trkpt lat="44.19745" lon="4.24492">
        <ele>179</ele>
        <time>2023-05-18T15:12:47+02:00</time>
      </trkpt>
      <trkpt lat="44.19731" lon="4.24491">
        <ele>179</ele>
        <time>2023-05-18T15:12:58+02:00</time>
      </trkpt>
      <trkpt lat="44.19717" lon="4.2449">
        <ele>179</ele>
        <time>2023-05-18T15:13:10+02:00</time>
      </trkpt>
      <trkpt lat="44.19701" lon="4.24495">
        <ele>179</ele>
        <time>2023-05-18T15:13:23+02:00</time>
      </trkpt>
      <trkpt lat="44.19687" lon="4.24502">
        <ele>179</ele>
        <time>2023-05-18T15:13:36+02:00</time>
      </trkpt>
      <trkpt lat="44.19673" lon="4.24505">
        <ele>179</ele>
        <time>2023-05-18T15:14:13+02:00</time>
      </trkpt>
      <trkpt lat="44.19659" lon="4.24509">
        <ele>179</ele>
        <time>2023-05-18T15:14:32+02:00</time>
      </trkpt>
      <trkpt lat="44.19645" lon="4.24516">
        <ele>180</ele>
        <time>2023-05-18T15:14:49+02:00</time>
      </trkpt>
      <trkpt lat="44.1963" lon="4.24527">
        <ele>182</ele>
        <time>2023-05-18T15:15:24+02:00</time>
      </trkpt>
      <trkpt lat="44.19616" lon="4.24523">
        <ele>183</ele>
        <time>2023-05-18T15:15:38+02:00</time>
      </trkpt>
      <trkpt lat="44.196" lon="4.24522">
        <ele>186</ele>
        <time>2023-05-18T15:15:56+02:00</time>
      </trkpt>
      <trkpt lat="44.19586" lon="4.24519">
        <ele>187</ele>
        <time>2023-05-18T15:16:09+02:00</time>
      </trkpt>
      <trkpt lat="44.19572" lon="4.24518">
        <ele>187</ele>
        <time>2023-05-18T15:16:22+02:00</time>
      </trkpt>
      <trkpt lat="44.19558" lon="4.24524">
        <ele>188</ele>
        <time>2023-05-18T15:16:58+02:00</time>
      </trkpt>
      <trkpt lat="44.19544" lon="4.24522">
        <ele>190</ele>
        <time>2023-05-18T15:17:19+02:00</time>
      </trkpt>
      <trkpt lat="44.1953" lon="4.24517">
        <ele>190</ele>
        <time>2023-05-18T15:17:30+02:00</time>
      </trkpt>
      <trkpt lat="44.19515" lon="4.24518">
        <ele>192</ele>
        <time>2023-05-18T15:17:41+02:00</time>
      </trkpt>
      <trkpt lat="44.19503" lon="4.24526">
        <ele>195</ele>
        <time>2023-05-18T15:18:17+02:00</time>
      </trkpt>
      <trkpt lat="44.19491" lon="4.24541">
        <ele>196</ele>
        <time>2023-05-18T15:18:29+02:00</time>
      </trkpt>
      <trkpt lat="44.19481" lon="4.24555">
        <ele>196</ele>
        <time>2023-05-18T15:18:39+02:00</time>
      </trkpt>
      <trkpt lat="44.19467" lon="4.24556">
        <ele>198</ele>
        <time>2023-05-18T15:18:53+02:00</time>
      </trkpt>
      <trkpt lat="44.1945" lon="4.2456">
        <ele>200</ele>
        <time>2023-05-18T15:19:08+02:00</time>
      </trkpt>
      <trkpt lat="44.19438" lon="4.24575">
        <ele>201</ele>
        <time>2023-05-18T15:19:36+02:00</time>
      </trkpt>
      <trkpt lat="44.19424" lon="4.24578">
        <ele>201</ele>
        <time>2023-05-18T15:19:48+02:00</time>
      </trkpt>
      <trkpt lat="44.19409" lon="4.24589">
        <ele>200</ele>
        <time>2023-05-18T15:20:03+02:00</time>
      </trkpt>
      <trkpt lat="44.19398" lon="4.246">
        <ele>200</ele>
        <time>2023-05-18T15:20:14+02:00</time>
      </trkpt>
      <trkpt lat="44.19385" lon="4.24609">
        <ele>199</ele>
        <time>2023-05-18T15:20:28+02:00</time>
      </trkpt>
      <trkpt lat="44.19385" lon="4.24586">
        <ele>197</ele>
        <time>2023-05-18T15:20:58+02:00</time>
      </trkpt>
      <trkpt lat="44.19369" lon="4.24586">
        <ele>200</ele>
        <time>2023-05-18T15:21:26+02:00</time>
      </trkpt>
      <trkpt lat="44.19355" lon="4.24576">
        <ele>203</ele>
        <time>2023-05-18T15:21:40+02:00</time>
      </trkpt>
      <trkpt lat="44.1934" lon="4.24569">
        <ele>204</ele>
        <time>2023-05-18T15:21:56+02:00</time>
      </trkpt>
      <trkpt lat="44.19327" lon="4.24565">
        <ele>204</ele>
        <time>2023-05-18T15:22:10+02:00</time>
      </trkpt>
      <trkpt lat="44.19313" lon="4.24555">
        <ele>204</ele>
        <time>2023-05-18T15:22:32+02:00</time>
      </trkpt>
      <trkpt lat="44.19297" lon="4.24554">
        <ele>204</ele>
        <time>2023-05-18T15:22:46+02:00</time>
      </trkpt>
      <trkpt lat="44.19282" lon="4.24551">
        <ele>204</ele>
        <time>2023-05-18T15:23:02+02:00</time>
      </trkpt>
      <trkpt lat="44.19268" lon="4.24548">
        <ele>204</ele>
        <time>2023-05-18T15:23:16+02:00</time>
      </trkpt>
      <trkpt lat="44.19255" lon="4.24538">
        <ele>205</ele>
        <time>2023-05-18T15:23:32+02:00</time>
      </trkpt>
      <trkpt lat="44.19245" lon="4.2452">
        <ele>202</ele>
        <time>2023-05-18T15:23:50+02:00</time>
      </trkpt>
      <trkpt lat="44.19236" lon="4.24502">
        <ele>202</ele>
        <time>2023-05-18T15:24:03+02:00</time>
      </trkpt>
      <trkpt lat="44.19222" lon="4.24493">
        <ele>202</ele>
        <time>2023-05-18T15:24:20+02:00</time>
      </trkpt>
      <trkpt lat="44.19208" lon="4.24481">
        <ele>200</ele>
        <time>2023-05-18T15:24:37+02:00</time>
      </trkpt>
      <trkpt lat="44.19197" lon="4.2447">
        <ele>199</ele>
        <time>2023-05-18T15:24:52+02:00</time>
      </trkpt>
      <trkpt lat="44.19187" lon="4.24458">
        <ele>197</ele>
        <time>2023-05-18T15:25:06+02:00</time>
      </trkpt>
      <trkpt lat="44.19173" lon="4.24454">
        <ele>196</ele>
        <time>2023-05-18T15:25:20+02:00</time>
      </trkpt>
      <trkpt lat="44.19159" lon="4.24455">
        <ele>195</ele>
        <time>2023-05-18T15:25:46+02:00</time>
      </trkpt>
      <trkpt lat="44.19143" lon="4.2445">
        <ele>194</ele>
        <time>2023-05-18T15:26:00+02:00</time>
      </trkpt>
      <trkpt lat="44.19127" lon="4.24447">
        <ele>194</ele>
        <time>2023-05-18T15:26:16+02:00</time>
      </trkpt>
      <trkpt lat="44.19113" lon="4.24438">
        <ele>194</ele>
        <time>2023-05-18T15:26:51+02:00</time>
      </trkpt>
      <trkpt lat="44.19102" lon="4.24422">
        <ele>192</ele>
        <time>2023-05-18T15:27:07+02:00</time>
      </trkpt>
      <trkpt lat="44.19092" lon="4.24408">
        <ele>192</ele>
        <time>2023-05-18T15:27:21+02:00</time>
      </trkpt>
      <trkpt lat="44.19084" lon="4.24393">
        <ele>190</ele>
        <time>2023-05-18T15:27:35+02:00</time>
      </trkpt>
      <trkpt lat="44.19073" lon="4.24378">
        <ele>188</ele>
        <time>2023-05-18T15:27:48+02:00</time>
      </trkpt>
      <trkpt lat="44.19062" lon="4.24364">
        <ele>188</ele>
        <time>2023-05-18T15:28:04+02:00</time>
      </trkpt>
      <trkpt lat="44.1905" lon="4.24353">
        <ele>188</ele>
        <time>2023-05-18T15:28:17+02:00</time>
      </trkpt>
      <trkpt lat="44.19039" lon="4.24336">
        <ele>188</ele>
        <time>2023-05-18T15:28:33+02:00</time>
      </trkpt>
      <trkpt lat="44.19027" lon="4.2432">
        <ele>187</ele>
        <time>2023-05-18T15:29:05+02:00</time>
      </trkpt>
      <trkpt lat="44.19014" lon="4.24305">
        <ele>185</ele>
        <time>2023-05-18T15:29:18+02:00</time>
      </trkpt>
      <trkpt lat="44.19006" lon="4.2429">
        <ele>184</ele>
        <time>2023-05-18T15:29:31+02:00</time>
      </trkpt>
      <trkpt lat="44.19001" lon="4.24269">
        <ele>183</ele>
        <time>2023-05-18T15:29:45+02:00</time>
      </trkpt>
      <trkpt lat="44.19002" lon="4.24249">
        <ele>181</ele>
        <time>2023-05-18T15:30:02+02:00</time>
      </trkpt>
      <trkpt lat="44.19013" lon="4.24236">
        <ele>181</ele>
        <time>2023-05-18T15:30:16+02:00</time>
      </trkpt>
      <trkpt lat="44.19013" lon="4.24214">
        <ele>181</ele>
        <time>2023-05-18T15:30:29+02:00</time>
      </trkpt>
      <trkpt lat="44.19016" lon="4.24195">
        <ele>181</ele>
        <time>2023-05-18T15:30:45+02:00</time>
      </trkpt>
      <trkpt lat="44.19019" lon="4.24175">
        <ele>181</ele>
        <time>2023-05-18T15:30:59+02:00</time>
      </trkpt>
      <trkpt lat="44.19016" lon="4.24156">
        <ele>181</ele>
        <time>2023-05-18T15:31:13+02:00</time>
      </trkpt>
      <trkpt lat="44.19011" lon="4.24137">
        <ele>181</ele>
        <time>2023-05-18T15:31:30+02:00</time>
      </trkpt>
      <trkpt lat="44.19006" lon="4.24119">
        <ele>181</ele>
        <time>2023-05-18T15:31:44+02:00</time>
      </trkpt>
      <trkpt lat="44.18994" lon="4.24107">
        <ele>181</ele>
        <time>2023-05-18T15:31:58+02:00</time>
      </trkpt>
      <trkpt lat="44.18979" lon="4.24098">
        <ele>181</ele>
        <time>2023-05-18T15:32:14+02:00</time>
      </trkpt>
      <trkpt lat="44.18968" lon="4.24086">
        <ele>181</ele>
        <time>2023-05-18T15:32:31+02:00</time>
      </trkpt>
      <trkpt lat="44.18969" lon="4.24064">
        <ele>181</ele>
        <time>2023-05-18T15:32:47+02:00</time>
      </trkpt>
      <trkpt lat="44.18977" lon="4.24047">
        <ele>182</ele>
        <time>2023-05-18T15:33:02+02:00</time>
      </trkpt>
      <trkpt lat="44.18984" lon="4.24026">
        <ele>182</ele>
        <time>2023-05-18T15:33:17+02:00</time>
      </trkpt>
      <trkpt lat="44.18991" lon="4.24008">
        <ele>182</ele>
        <time>2023-05-18T15:33:31+02:00</time>
      </trkpt>
      <trkpt lat="44.18998" lon="4.2399">
        <ele>181</ele>
        <time>2023-05-18T15:33:45+02:00</time>
      </trkpt>
      <trkpt lat="44.1901" lon="4.23978">
        <ele>181</ele>
        <time>2023-05-18T15:34:04+02:00</time>
      </trkpt>
      <trkpt lat="44.19017" lon="4.23958">
        <ele>182</ele>
        <time>2023-05-18T15:34:15+02:00</time>
      </trkpt>
      <trkpt lat="44.19023" lon="4.23937">
        <ele>181</ele>
        <time>2023-05-18T15:34:29+02:00</time>
      </trkpt>
      <trkpt lat="44.19032" lon="4.23919">
        <ele>181</ele>
        <time>2023-05-18T15:34:43+02:00</time>
      </trkpt>
      <trkpt lat="44.19039" lon="4.23901">
        <ele>181</ele>
        <time>2023-05-18T15:34:56+02:00</time>
      </trkpt>
      <trkpt lat="44.19047" lon="4.23884">
        <ele>181</ele>
        <time>2023-05-18T15:35:09+02:00</time>
      </trkpt>
      <trkpt lat="44.19055" lon="4.23868">
        <ele>180</ele>
        <time>2023-05-18T15:35:23+02:00</time>
      </trkpt>
      <trkpt lat="44.19063" lon="4.23851">
        <ele>180</ele>
        <time>2023-05-18T15:35:35+02:00</time>
      </trkpt>
      <trkpt lat="44.19072" lon="4.23837">
        <ele>181</ele>
        <time>2023-05-18T15:35:47+02:00</time>
      </trkpt>
      <trkpt lat="44.19081" lon="4.23821">
        <ele>180</ele>
        <time>2023-05-18T15:35:58+02:00</time>
      </trkpt>
      <trkpt lat="44.19088" lon="4.23801">
        <ele>181</ele>
        <time>2023-05-18T15:36:11+02:00</time>
      </trkpt>
      <trkpt lat="44.19093" lon="4.23784">
        <ele>180</ele>
        <time>2023-05-18T15:36:23+02:00</time>
      </trkpt>
      <trkpt lat="44.1909" lon="4.23762">
        <ele>179</ele>
        <time>2023-05-18T15:36:57+02:00</time>
      </trkpt>
      <trkpt lat="44.19081" lon="4.23746">
        <ele>179</ele>
        <time>2023-05-18T15:37:19+02:00</time>
      </trkpt>
      <trkpt lat="44.19075" lon="4.23726">
        <ele>179</ele>
        <time>2023-05-18T15:37:37+02:00</time>
      </trkpt>
      <trkpt lat="44.19067" lon="4.23707">
        <ele>179</ele>
        <time>2023-05-18T15:37:51+02:00</time>
      </trkpt>
      <trkpt lat="44.19059" lon="4.23688">
        <ele>179</ele>
        <time>2023-05-18T15:38:10+02:00</time>
      </trkpt>
      <trkpt lat="44.19046" lon="4.23674">
        <ele>179</ele>
        <time>2023-05-18T15:38:22+02:00</time>
      </trkpt>
      <trkpt lat="44.19033" lon="4.23659">
        <ele>179</ele>
        <time>2023-05-18T15:38:37+02:00</time>
      </trkpt>
      <trkpt lat="44.19023" lon="4.23642">
        <ele>179</ele>
        <time>2023-05-18T15:38:52+02:00</time>
      </trkpt>
      <trkpt lat="44.19013" lon="4.23626">
        <ele>179</ele>
        <time>2023-05-18T15:39:08+02:00</time>
      </trkpt>
      <trkpt lat="44.19001" lon="4.23612">
        <ele>179</ele>
        <time>2023-05-18T15:39:24+02:00</time>
      </trkpt>
      <trkpt lat="44.18987" lon="4.23604">
        <ele>180</ele>
        <time>2023-05-18T15:39:35+02:00</time>
      </trkpt>
      <trkpt lat="44.18974" lon="4.2359">
        <ele>180</ele>
        <time>2023-05-18T15:39:49+02:00</time>
      </trkpt>
      <trkpt lat="44.18963" lon="4.23577">
        <ele>180</ele>
        <time>2023-05-18T15:40:03+02:00</time>
      </trkpt>
      <trkpt lat="44.18954" lon="4.23561">
        <ele>180</ele>
        <time>2023-05-18T15:40:17+02:00</time>
      </trkpt>
      <trkpt lat="44.18945" lon="4.23546">
        <ele>181</ele>
        <time>2023-05-18T15:40:31+02:00</time>
      </trkpt>
      <trkpt lat="44.18935" lon="4.23529">
        <ele>180</ele>
        <time>2023-05-18T15:40:48+02:00</time>
      </trkpt>
      <trkpt lat="44.18932" lon="4.23511">
        <ele>181</ele>
        <time>2023-05-18T15:41:02+02:00</time>
      </trkpt>
      <trkpt lat="44.18922" lon="4.23495">
        <ele>181</ele>
        <time>2023-05-18T15:41:15+02:00</time>
      </trkpt>
      <trkpt lat="44.18913" lon="4.23479">
        <ele>181</ele>
        <time>2023-05-18T15:41:29+02:00</time>
      </trkpt>
      <trkpt lat="44.18904" lon="4.23466">
        <ele>181</ele>
        <time>2023-05-18T15:41:43+02:00</time>
      </trkpt>
      <trkpt lat="44.18893" lon="4.23451">
        <ele>181</ele>
        <time>2023-05-18T15:41:57+02:00</time>
      </trkpt>
      <trkpt lat="44.18882" lon="4.23437">
        <ele>181</ele>
        <time>2023-05-18T15:42:12+02:00</time>
      </trkpt>
      <trkpt lat="44.18873" lon="4.23422">
        <ele>181</ele>
        <time>2023-05-18T15:42:25+02:00</time>
      </trkpt>
      <trkpt lat="44.18863" lon="4.23406">
        <ele>182</ele>
        <time>2023-05-18T15:42:41+02:00</time>
      </trkpt>
      <trkpt lat="44.18852" lon="4.2339">
        <ele>181</ele>
        <time>2023-05-18T15:42:55+02:00</time>
      </trkpt>
      <trkpt lat="44.18842" lon="4.23375">
        <ele>182</ele>
        <time>2023-05-18T15:43:08+02:00</time>
      </trkpt>
      <trkpt lat="44.18835" lon="4.23357">
        <ele>181</ele>
        <time>2023-05-18T15:43:22+02:00</time>
      </trkpt>
      <trkpt lat="44.1883" lon="4.23336">
        <ele>181</ele>
        <time>2023-05-18T15:43:38+02:00</time>
      </trkpt>
      <trkpt lat="44.18823" lon="4.23318">
        <ele>182</ele>
        <time>2023-05-18T15:43:53+02:00</time>
      </trkpt>
      <trkpt lat="44.18812" lon="4.23302">
        <ele>181</ele>
        <time>2023-05-18T15:44:09+02:00</time>
      </trkpt>
      <trkpt lat="44.18805" lon="4.23284">
        <ele>182</ele>
        <time>2023-05-18T15:44:26+02:00</time>
      </trkpt>
      <trkpt lat="44.18792" lon="4.23279">
        <ele>181</ele>
        <time>2023-05-18T15:44:37+02:00</time>
      </trkpt>
      <trkpt lat="44.18778" lon="4.2327">
        <ele>182</ele>
        <time>2023-05-18T15:44:57+02:00</time>
      </trkpt>
      <trkpt lat="44.18764" lon="4.23263">
        <ele>182</ele>
        <time>2023-05-18T15:45:16+02:00</time>
      </trkpt>
      <trkpt lat="44.18753" lon="4.23252">
        <ele>182</ele>
        <time>2023-05-18T15:45:30+02:00</time>
      </trkpt>
      <trkpt lat="44.1874" lon="4.23238">
        <ele>182</ele>
        <time>2023-05-18T15:45:46+02:00</time>
      </trkpt>
      <trkpt lat="44.18728" lon="4.23226">
        <ele>182</ele>
        <time>2023-05-18T15:46:02+02:00</time>
      </trkpt>
      <trkpt lat="44.18714" lon="4.23218">
        <ele>182</ele>
        <time>2023-05-18T15:46:17+02:00</time>
      </trkpt>
      <trkpt lat="44.18699" lon="4.2321">
        <ele>182</ele>
        <time>2023-05-18T15:46:35+02:00</time>
      </trkpt>
      <trkpt lat="44.18686" lon="4.232">
        <ele>182</ele>
        <time>2023-05-18T15:46:49+02:00</time>
      </trkpt>
      <trkpt lat="44.18674" lon="4.23188">
        <ele>182</ele>
        <time>2023-05-18T15:47:04+02:00</time>
      </trkpt>
      <trkpt lat="44.18661" lon="4.23175">
        <ele>182</ele>
        <time>2023-05-18T15:47:20+02:00</time>
      </trkpt>
      <trkpt lat="44.18647" lon="4.23166">
        <ele>182</ele>
        <time>2023-05-18T15:47:37+02:00</time>
      </trkpt>
      <trkpt lat="44.18635" lon="4.23156">
        <ele>182</ele>
        <time>2023-05-18T15:47:51+02:00</time>
      </trkpt>
      <trkpt lat="44.18621" lon="4.23148">
        <ele>182</ele>
        <time>2023-05-18T15:48:06+02:00</time>
      </trkpt>
      <trkpt lat="44.18608" lon="4.2314">
        <ele>182</ele>
        <time>2023-05-18T15:48:20+02:00</time>
      </trkpt>
      <trkpt lat="44.18593" lon="4.23132">
        <ele>182</ele>
        <time>2023-05-18T15:48:36+02:00</time>
      </trkpt>
      <trkpt lat="44.1858" lon="4.23126">
        <ele>183</ele>
        <time>2023-05-18T15:48:50+02:00</time>
      </trkpt>
      <trkpt lat="44.18567" lon="4.23117">
        <ele>183</ele>
        <time>2023-05-18T15:49:04+02:00</time>
      </trkpt>
      <trkpt lat="44.18553" lon="4.23109">
        <ele>183</ele>
        <time>2023-05-18T15:49:18+02:00</time>
      </trkpt>
      <trkpt lat="44.18539" lon="4.23103">
        <ele>183</ele>
        <time>2023-05-18T15:49:34+02:00</time>
      </trkpt>
      <trkpt lat="44.18527" lon="4.23115">
        <ele>185</ele>
        <time>2023-05-18T15:49:47+02:00</time>
      </trkpt>
      <trkpt lat="44.18521" lon="4.23137">
        <ele>185</ele>
        <time>2023-05-18T15:50:01+02:00</time>
      </trkpt>
      <trkpt lat="44.18516" lon="4.23156">
        <ele>185</ele>
        <time>2023-05-18T15:50:15+02:00</time>
      </trkpt>
      <trkpt lat="44.1851" lon="4.23176">
        <ele>185</ele>
        <time>2023-05-18T15:50:30+02:00</time>
      </trkpt>
      <trkpt lat="44.18505" lon="4.23195">
        <ele>185</ele>
        <time>2023-05-18T15:50:44+02:00</time>
      </trkpt>
      <trkpt lat="44.18502" lon="4.23213">
        <ele>185</ele>
        <time>2023-05-18T15:50:57+02:00</time>
      </trkpt>
      <trkpt lat="44.18495" lon="4.23233">
        <ele>185</ele>
        <time>2023-05-18T15:51:13+02:00</time>
      </trkpt>
    </trkseg>
  </trk>
</gpx>